DAL201 FAOR-KATL
Flight info
| Callsign | DAL201 |
|---|---|
| Flight time | N/A |
| Altitude | 34000 |
| Route | VASUR3A VASUR UQ24 ETOSA UL435 XOXAM UN184 EVUVI UT375 ETLOV DCT 15S010E 12S005E 09S000W/N0500F360 06S005W 03S010W 01S015W 02N020W/N0492F380 DCT BUVUK UL435 IRELA DCT 15N040W/M085F400 21N050W 26N060W DCT MEGGG L375 JAINS/N0485F400 DCT HOTHH JJEDI4 |
| Aircraft | A359/H-SDE2E3GHIJ3J4J5LM1ORWXY/LB1D1 |
Departure
| Time | 2026-05-05 18:26 |
|---|---|
| Airport | O.R. Tambo International Airport (FAOR) |
Arrival
| Time | N/A |
|---|---|
| Airport | Hartsfield Jackson Atlanta International Airport (KATL) |
| Time | Latitude | Longitude | Altitude | Speed | Heading |
|---|---|---|---|---|---|
| 2026-05-05 17:32 | -26.12919 | 28.23576 | 5553 ft | 0 kts | 186° |
| 2026-05-05 18:13 | -26.12915 | 28.23576 | 5555 ft | 3 kts | 186° |
| 2026-05-05 18:13 | -26.12890 | 28.23579 | 5557 ft | 2 kts | 186° |
| 2026-05-05 18:13 | -26.12866 | 28.23581 | 5552 ft | 4 kts | 175° |
| 2026-05-05 18:14 | -26.12840 | 28.23575 | 5555 ft | 4 kts | 155° |
| 2026-05-05 18:14 | -26.12834 | 28.23572 | 5552 ft | 0 kts | 148° |
| 2026-05-05 18:15 | -26.12825 | 28.23565 | 5558 ft | 3 kts | 128° |
| 2026-05-05 18:15 | -26.12816 | 28.23547 | 5553 ft | 2 kts | 94° |
| 2026-05-05 18:15 | -26.12816 | 28.23544 | 5553 ft | 0 kts | 94° |
| 2026-05-05 18:18 | -26.12818 | 28.23577 | 5556 ft | 9 kts | 94° |
| 2026-05-05 18:18 | -26.12826 | 28.23672 | 5554 ft | 13 kts | 97° |
| 2026-05-05 18:19 | -26.12847 | 28.23765 | 5551 ft | 12 kts | 132° |
| 2026-05-05 18:19 | -26.12920 | 28.23766 | 5550 ft | 11 kts | 194° |
| 2026-05-05 18:19 | -26.12988 | 28.23745 | 5552 ft | 9 kts | 195° |
| 2026-05-05 18:19 | -26.13045 | 28.23727 | 5551 ft | 8 kts | 195° |
| 2026-05-05 18:20 | -26.13095 | 28.23711 | 5551 ft | 7 kts | 195° |
| 2026-05-05 18:20 | -26.13168 | 28.23688 | 5552 ft | 13 kts | 195° |
| 2026-05-05 18:20 | -26.13248 | 28.23664 | 5551 ft | 11 kts | 195° |
| 2026-05-05 18:20 | -26.13314 | 28.23644 | 5554 ft | 11 kts | 195° |
| 2026-05-05 18:21 | -26.13401 | 28.23617 | 5555 ft | 16 kts | 195° |
| 2026-05-05 18:21 | -26.13525 | 28.23578 | 5556 ft | 20 kts | 195° |
| 2026-05-05 18:21 | -26.13649 | 28.23540 | 5558 ft | 17 kts | 195° |
| 2026-05-05 18:21 | -26.13747 | 28.23510 | 5562 ft | 12 kts | 195° |
| 2026-05-05 18:22 | -26.13818 | 28.23488 | 5565 ft | 11 kts | 195° |
| 2026-05-05 18:22 | -26.13907 | 28.23461 | 5565 ft | 16 kts | 195° |
| 2026-05-05 18:22 | -26.14023 | 28.23425 | 5568 ft | 16 kts | 195° |
| 2026-05-05 18:22 | -26.14115 | 28.23396 | 5568 ft | 12 kts | 195° |
| 2026-05-05 18:23 | -26.14189 | 28.23373 | 5569 ft | 12 kts | 195° |
| 2026-05-05 18:23 | -26.14279 | 28.23345 | 5570 ft | 12 kts | 195° |
| 2026-05-05 18:23 | -26.14348 | 28.23324 | 5570 ft | 8 kts | 195° |
| 2026-05-05 18:23 | -26.14404 | 28.23306 | 5571 ft | 10 kts | 195° |
| 2026-05-05 18:24 | -26.14487 | 28.23282 | 5570 ft | 18 kts | 191° |
| 2026-05-05 18:24 | -26.14604 | 28.23330 | 5570 ft | 15 kts | 111° |
| 2026-05-05 18:24 | -26.14617 | 28.23424 | 5571 ft | 10 kts | 75° |
| 2026-05-05 18:24 | -26.14575 | 28.23455 | 5572 ft | 6 kts | 17° |
| 2026-05-05 18:25 | -26.14498 | 28.23480 | 5570 ft | 26 kts | 15° |
| 2026-05-05 18:25 | -26.14299 | 28.23541 | 5573 ft | 63 kts | 15° |
| 2026-05-05 18:25 | -26.13420 | 28.23814 | 5554 ft | 131 kts | 15° |
| 2026-05-05 18:25 | -26.12396 | 28.24130 | 5549 ft | 174 kts | 15° |
| 2026-05-05 18:26 | -26.11144 | 28.24527 | 5831 ft | 184 kts | 17° |
| 2026-05-05 18:26 | -26.09962 | 28.24950 | 6502 ft | 177 kts | 18° |
| 2026-05-05 18:26 | -26.08741 | 28.25393 | 6801 ft | 191 kts | 17° |
| 2026-05-05 18:26 | -26.07462 | 28.25864 | 7266 ft | 196 kts | 17° |
| 2026-05-05 18:27 | -26.06135 | 28.26357 | 7597 ft | 205 kts | 17° |
| 2026-05-05 18:27 | -26.04711 | 28.26617 | 7702 ft | 214 kts | 351° |
| 2026-05-05 18:27 | -26.03333 | 28.25988 | 7863 ft | 219 kts | 320° |
| 2026-05-05 18:27 | -26.02214 | 28.24798 | 8097 ft | 228 kts | 311° |
| 2026-05-05 18:28 | -26.00013 | 28.21995 | 8499 ft | 253 kts | 310° |
| 2026-05-05 18:28 | -25.98845 | 28.20472 | 8713 ft | 265 kts | 310° |
| 2026-05-05 18:28 | -25.97626 | 28.18872 | 8975 ft | 276 kts | 310° |
| 2026-05-05 18:29 | -25.96379 | 28.17222 | 9348 ft | 281 kts | 310° |
| 2026-05-05 18:29 | -25.95113 | 28.15540 | 9848 ft | 283 kts | 310° |
| 2026-05-05 18:29 | -25.93849 | 28.13875 | 10309 ft | 285 kts | 310° |
| 2026-05-05 18:29 | -25.92538 | 28.12173 | 10548 ft | 296 kts | 310° |
| 2026-05-05 18:30 | -25.91163 | 28.10393 | 10785 ft | 308 kts | 310° |
| 2026-05-05 18:30 | -25.89747 | 28.08556 | 11001 ft | 319 kts | 310° |
| 2026-05-05 18:30 | -25.88283 | 28.06655 | 11219 ft | 330 kts | 310° |
| 2026-05-05 18:30 | -25.86770 | 28.04691 | 11433 ft | 340 kts | 310° |
| 2026-05-05 18:31 | -25.85212 | 28.02667 | 11641 ft | 349 kts | 310° |
| 2026-05-05 18:31 | -25.83639 | 28.00621 | 11834 ft | 358 kts | 310° |
| 2026-05-05 18:31 | -25.81977 | 27.98458 | 12035 ft | 366 kts | 310° |
| 2026-05-05 18:31 | -25.80334 | 27.96321 | 12336 ft | 371 kts | 310° |
| 2026-05-05 18:32 | -25.78630 | 27.94103 | 12719 ft | 373 kts | 310° |
| 2026-05-05 18:32 | -25.76960 | 27.91933 | 13081 ft | 376 kts | 310° |
| 2026-05-05 18:32 | -25.75261 | 27.89727 | 13444 ft | 378 kts | 310° |
| 2026-05-05 18:32 | -25.73548 | 27.87504 | 13788 ft | 380 kts | 310° |
| 2026-05-05 18:33 | -25.71823 | 27.85267 | 14152 ft | 382 kts | 310° |
| 2026-05-05 18:33 | -25.70091 | 27.83023 | 14505 ft | 384 kts | 310° |
| 2026-05-05 18:33 | -25.68350 | 27.80767 | 14840 ft | 386 kts | 310° |
| 2026-05-05 18:33 | -25.66601 | 27.78502 | 15160 ft | 388 kts | 310° |
| 2026-05-05 18:34 | -25.64838 | 27.76221 | 15500 ft | 390 kts | 310° |
| 2026-05-05 18:34 | -25.63067 | 27.73930 | 15816 ft | 392 kts | 310° |
| 2026-05-05 18:34 | -25.61287 | 27.71633 | 16144 ft | 394 kts | 310° |
| 2026-05-05 18:34 | -25.59506 | 27.69331 | 16483 ft | 395 kts | 310° |
| 2026-05-05 18:35 | -25.57711 | 27.67010 | 16791 ft | 397 kts | 310° |
| 2026-05-05 18:35 | -25.55910 | 27.64683 | 17089 ft | 399 kts | 310° |
| 2026-05-05 18:35 | -25.54098 | 27.62343 | 17384 ft | 400 kts | 310° |
| 2026-05-05 18:35 | -25.52277 | 27.59996 | 17634 ft | 403 kts | 310° |
| 2026-05-05 18:36 | -25.50448 | 27.57637 | 17953 ft | 404 kts | 310° |
| 2026-05-05 18:36 | -25.48619 | 27.55279 | 18258 ft | 406 kts | 310° |
| 2026-05-05 18:36 | -25.46770 | 27.52897 | 18532 ft | 408 kts | 310° |
| 2026-05-05 18:36 | -25.44914 | 27.50508 | 18826 ft | 409 kts | 310° |
| 2026-05-05 18:37 | -25.43056 | 27.48115 | 19097 ft | 411 kts | 310° |
| 2026-05-05 18:37 | -25.41187 | 27.45708 | 19356 ft | 413 kts | 310° |
| 2026-05-05 18:37 | -25.39311 | 27.43298 | 19587 ft | 415 kts | 310° |
| 2026-05-05 18:37 | -25.37418 | 27.40868 | 19861 ft | 416 kts | 310° |
| 2026-05-05 18:38 | -25.35528 | 27.38441 | 20120 ft | 418 kts | 310° |
| 2026-05-05 18:38 | -25.33628 | 27.36002 | 20365 ft | 420 kts | 310° |
| 2026-05-05 18:38 | -25.31715 | 27.33549 | 20628 ft | 422 kts | 310° |
| 2026-05-05 18:38 | -25.29792 | 27.31083 | 20889 ft | 424 kts | 310° |
| 2026-05-05 18:39 | -25.27865 | 27.28612 | 21134 ft | 425 kts | 310° |
| 2026-05-05 18:39 | -25.25933 | 27.26137 | 21375 ft | 427 kts | 310° |
| 2026-05-05 18:39 | -25.23987 | 27.23649 | 21589 ft | 429 kts | 310° |
| 2026-05-05 18:39 | -25.22058 | 27.21126 | 21817 ft | 431 kts | 307° |
| 2026-05-05 18:40 | -25.20417 | 27.18408 | 22079 ft | 432 kts | 300° |
| 2026-05-05 18:40 | -25.18987 | 27.15482 | 22324 ft | 434 kts | 297° |
| 2026-05-05 18:40 | -25.17646 | 27.12498 | 22580 ft | 435 kts | 296° |
| 2026-05-05 18:40 | -25.16349 | 27.09476 | 22786 ft | 437 kts | 295° |
| 2026-05-05 18:41 | -25.15066 | 27.06428 | 23014 ft | 439 kts | 295° |
| 2026-05-05 18:41 | -25.13782 | 27.03371 | 23238 ft | 441 kts | 295° |
| 2026-05-05 18:41 | -25.12483 | 27.00295 | 23503 ft | 441 kts | 295° |
| 2026-05-05 18:41 | -25.11182 | 26.97232 | 23738 ft | 443 kts | 295° |
| 2026-05-05 18:42 | -25.09867 | 26.94151 | 23944 ft | 444 kts | 295° |
| 2026-05-05 18:42 | -25.08544 | 26.91061 | 24190 ft | 446 kts | 295° |
| 2026-05-05 18:42 | -25.07215 | 26.87966 | 24422 ft | 447 kts | 296° |
| 2026-05-05 18:42 | -25.05878 | 26.84860 | 24636 ft | 449 kts | 296° |
| 2026-05-05 18:43 | -25.04537 | 26.81747 | 24848 ft | 450 kts | 296° |
| 2026-05-05 18:43 | -25.03190 | 26.78619 | 25100 ft | 451 kts | 296° |
| 2026-05-05 18:43 | -25.01841 | 26.75489 | 25337 ft | 453 kts | 296° |
| 2026-05-05 18:43 | -25.00487 | 26.72349 | 25567 ft | 455 kts | 296° |
| 2026-05-05 18:44 | -24.99128 | 26.69200 | 25828 ft | 456 kts | 296° |
| 2026-05-05 18:44 | -24.97762 | 26.66033 | 26048 ft | 458 kts | 296° |
| 2026-05-05 18:44 | -24.96391 | 26.62852 | 26308 ft | 460 kts | 296° |
| 2026-05-05 18:44 | -24.95019 | 26.59669 | 26582 ft | 461 kts | 296° |
| 2026-05-05 18:45 | -24.93636 | 26.56473 | 26842 ft | 462 kts | 296° |
| 2026-05-05 18:45 | -24.92248 | 26.53270 | 27082 ft | 464 kts | 296° |
| 2026-05-05 18:45 | -24.90857 | 26.50059 | 27332 ft | 466 kts | 296° |
| 2026-05-05 18:45 | -24.89458 | 26.46831 | 27564 ft | 467 kts | 296° |
| 2026-05-05 18:46 | -24.88055 | 26.43595 | 27791 ft | 469 kts | 296° |
| 2026-05-05 18:46 | -24.86645 | 26.40349 | 28035 ft | 471 kts | 296° |
| 2026-05-05 18:46 | -24.85233 | 26.37098 | 28285 ft | 472 kts | 296° |
| 2026-05-05 18:46 | -24.83816 | 26.33835 | 28491 ft | 473 kts | 296° |
| 2026-05-05 18:47 | -24.82393 | 26.30562 | 28699 ft | 475 kts | 296° |
| 2026-05-05 18:47 | -24.80964 | 26.27278 | 28913 ft | 476 kts | 296° |
| 2026-05-05 18:47 | -24.79532 | 26.23997 | 29194 ft | 475 kts | 296° |
| 2026-05-05 18:47 | -24.78109 | 26.20731 | 29498 ft | 474 kts | 296° |
| 2026-05-05 18:48 | -24.76686 | 26.17464 | 29800 ft | 472 kts | 296° |
| 2026-05-05 18:48 | -24.75264 | 26.14205 | 30092 ft | 471 kts | 296° |
| 2026-05-05 18:48 | -24.73849 | 26.10965 | 30361 ft | 471 kts | 296° |
| 2026-05-05 18:48 | -24.72432 | 26.07725 | 30654 ft | 469 kts | 296° |
| 2026-05-05 18:49 | -24.71018 | 26.04499 | 30953 ft | 467 kts | 296° |
| 2026-05-05 18:49 | -24.69513 | 26.01329 | 31205 ft | 466 kts | 299° |
| 2026-05-05 18:49 | -24.67892 | 25.98248 | 31453 ft | 466 kts | 301° |
| 2026-05-05 18:49 | -24.66227 | 25.95201 | 31751 ft | 463 kts | 301° |
| 2026-05-05 18:50 | -24.64591 | 25.92219 | 32043 ft | 461 kts | 301° |
| 2026-05-05 18:50 | -24.62948 | 25.89199 | 32280 ft | 460 kts | 301° |
| 2026-05-05 18:50 | -24.61322 | 25.86175 | 32501 ft | 459 kts | 301° |
| 2026-05-05 18:50 | -24.59831 | 25.83074 | 32674 ft | 459 kts | 295° |
| 2026-05-05 18:51 | -24.58595 | 25.79842 | 32881 ft | 459 kts | 293° |
| 2026-05-05 18:51 | -24.57424 | 25.76584 | 33097 ft | 458 kts | 292° |
| 2026-05-05 18:51 | -24.56288 | 25.73326 | 33292 ft | 457 kts | 292° |
| 2026-05-05 18:51 | -24.55164 | 25.70061 | 33479 ft | 456 kts | 292° |
| 2026-05-05 18:52 | -24.54049 | 25.66816 | 33645 ft | 455 kts | 292° |
| 2026-05-05 18:52 | -24.52926 | 25.63557 | 33807 ft | 455 kts | 292° |
| 2026-05-05 18:52 | -24.52183 | 25.61409 | 33920 ft | 454 kts | 292° |
| 2026-05-05 18:52 | -24.51057 | 25.58162 | 33991 ft | 456 kts | 292° |
| 2026-05-05 18:53 | -24.48779 | 25.51628 | 33999 ft | 461 kts | 292° |
| 2026-05-05 18:53 | -24.46485 | 25.45068 | 33998 ft | 460 kts | 292° |
| 2026-05-05 18:54 | -24.44189 | 25.38513 | 34009 ft | 460 kts | 292° |
| 2026-05-05 18:54 | -24.41887 | 25.31965 | 34010 ft | 459 kts | 292° |
| 2026-05-05 18:55 | -24.39596 | 25.25445 | 34008 ft | 458 kts | 292° |
| 2026-05-05 18:55 | -24.37303 | 25.18926 | 34012 ft | 459 kts | 292° |
| 2026-05-05 18:56 | -24.35008 | 25.12386 | 34004 ft | 459 kts | 292° |
| 2026-05-05 18:56 | -24.32708 | 25.05859 | 34007 ft | 459 kts | 292° |
| 2026-05-05 18:57 | -24.30402 | 24.99329 | 34008 ft | 459 kts | 292° |
| 2026-05-05 18:57 | -24.28095 | 24.92805 | 34007 ft | 459 kts | 292° |
| 2026-05-05 18:58 | -24.25786 | 24.86291 | 34011 ft | 459 kts | 292° |
| 2026-05-05 18:58 | -24.23466 | 24.79759 | 34016 ft | 459 kts | 292° |
| 2026-05-05 18:59 | -24.21164 | 24.73290 | 34014 ft | 459 kts | 293° |
| 2026-05-05 18:59 | -24.18151 | 24.67172 | 33992 ft | 457 kts | 304° |
| 2026-05-05 19:00 | -24.14567 | 24.61416 | 33989 ft | 457 kts | 305° |
| 2026-05-05 19:00 | -24.10908 | 24.55733 | 33990 ft | 457 kts | 306° |
| 2026-05-05 19:01 | -24.07235 | 24.50037 | 33989 ft | 457 kts | 305° |
| 2026-05-05 19:01 | -24.03585 | 24.44348 | 33988 ft | 457 kts | 305° |
| 2026-05-05 19:02 | -23.99930 | 24.38657 | 33990 ft | 457 kts | 305° |
| 2026-05-05 19:02 | -23.96274 | 24.32970 | 33988 ft | 457 kts | 305° |
| 2026-05-05 19:03 | -23.92608 | 24.27275 | 33991 ft | 457 kts | 305° |
| 2026-05-05 19:03 | -23.88943 | 24.21590 | 33991 ft | 458 kts | 305° |
| 2026-05-05 19:04 | -23.85277 | 24.15905 | 33992 ft | 457 kts | 305° |
| 2026-05-05 19:04 | -23.81613 | 24.10230 | 33988 ft | 457 kts | 306° |
| 2026-05-05 19:05 | -23.77946 | 24.04556 | 33990 ft | 458 kts | 305° |
| 2026-05-05 19:05 | -23.74375 | 23.98801 | 33990 ft | 457 kts | 304° |
| 2026-05-05 19:06 | -23.70854 | 23.93018 | 33990 ft | 458 kts | 304° |
| 2026-05-05 19:06 | -23.67313 | 23.87242 | 33990 ft | 458 kts | 304° |
| 2026-05-05 19:07 | -23.63761 | 23.81484 | 33989 ft | 458 kts | 304° |
| 2026-05-05 19:07 | -23.60216 | 23.75764 | 33989 ft | 458 kts | 304° |
| 2026-05-05 19:08 | -23.56645 | 23.70000 | 33987 ft | 458 kts | 304° |
| 2026-05-05 19:08 | -23.53079 | 23.64244 | 33990 ft | 458 kts | 304° |
| 2026-05-05 19:09 | -23.49508 | 23.58493 | 33988 ft | 459 kts | 304° |
| 2026-05-05 19:09 | -23.45928 | 23.52734 | 33990 ft | 459 kts | 304° |
| 2026-05-05 19:10 | -23.42349 | 23.46978 | 33990 ft | 459 kts | 304° |
| 2026-05-05 19:10 | -23.38764 | 23.41218 | 33989 ft | 459 kts | 304° |
| 2026-05-05 19:11 | -23.35169 | 23.35454 | 34011 ft | 460 kts | 304° |
| 2026-05-05 19:11 | -23.31567 | 23.29691 | 34024 ft | 460 kts | 304° |
| 2026-05-05 19:12 | -23.27968 | 23.23935 | 34024 ft | 461 kts | 304° |
| 2026-05-05 19:12 | -23.24364 | 23.18172 | 34013 ft | 461 kts | 304° |
| 2026-05-05 19:13 | -23.20755 | 23.12408 | 34017 ft | 461 kts | 304° |
| 2026-05-05 19:13 | -23.17147 | 23.06654 | 34014 ft | 461 kts | 304° |
| 2026-05-05 19:14 | -23.13531 | 23.00894 | 34020 ft | 462 kts | 304° |
| 2026-05-05 19:14 | -23.09908 | 22.95131 | 34022 ft | 462 kts | 304° |
| 2026-05-05 19:15 | -23.06270 | 22.89384 | 34022 ft | 462 kts | 305° |
| 2026-05-05 19:15 | -23.02399 | 22.83812 | 34015 ft | 463 kts | 307° |
| 2026-05-05 19:16 | -22.98452 | 22.78299 | 34019 ft | 463 kts | 307° |
| 2026-05-05 19:16 | -22.94535 | 22.72765 | 34014 ft | 462 kts | 306° |
| 2026-05-05 19:17 | -22.90638 | 22.67199 | 34019 ft | 463 kts | 306° |
| 2026-05-05 19:17 | -22.86742 | 22.61633 | 34015 ft | 463 kts | 306° |
| 2026-05-05 19:18 | -22.82839 | 22.56070 | 34020 ft | 463 kts | 306° |
| 2026-05-05 19:18 | -22.78963 | 22.50552 | 34022 ft | 463 kts | 306° |
| 2026-05-05 19:19 | -22.75059 | 22.45000 | 34034 ft | 463 kts | 306° |
| 2026-05-05 19:19 | -22.71153 | 22.39448 | 34022 ft | 464 kts | 306° |
| 2026-05-05 19:20 | -22.67240 | 22.33889 | 34047 ft | 464 kts | 306° |
| 2026-05-05 19:20 | -22.63320 | 22.28332 | 34054 ft | 464 kts | 306° |
| 2026-05-05 19:21 | -22.59396 | 22.22777 | 34053 ft | 465 kts | 306° |
| 2026-05-05 19:21 | -22.55466 | 22.17216 | 34053 ft | 465 kts | 306° |
| 2026-05-05 19:22 | -22.51533 | 22.11657 | 34050 ft | 465 kts | 306° |
| 2026-05-05 19:22 | -22.47601 | 22.06107 | 34046 ft | 465 kts | 306° |
| 2026-05-05 19:23 | -22.43664 | 22.00546 | 34047 ft | 466 kts | 306° |
| 2026-05-05 19:23 | -22.39723 | 21.94992 | 34045 ft | 466 kts | 306° |
| 2026-05-05 19:24 | -22.35774 | 21.89436 | 34029 ft | 466 kts | 306° |
| 2026-05-05 19:24 | -22.31823 | 21.83892 | 34045 ft | 466 kts | 306° |
| 2026-05-05 19:25 | -22.27869 | 21.78334 | 34044 ft | 466 kts | 306° |
| 2026-05-05 19:25 | -22.23944 | 21.72824 | 34055 ft | 466 kts | 306° |
| 2026-05-05 19:26 | -22.19992 | 21.67281 | 34055 ft | 466 kts | 306° |
| 2026-05-05 19:26 | -22.16033 | 21.61736 | 34054 ft | 466 kts | 306° |
| 2026-05-05 19:27 | -22.12071 | 21.56192 | 34055 ft | 466 kts | 306° |
| 2026-05-05 19:27 | -22.08108 | 21.50655 | 34055 ft | 467 kts | 306° |
| 2026-05-05 19:28 | -22.04141 | 21.45116 | 34057 ft | 467 kts | 306° |
| 2026-05-05 19:28 | -22.00178 | 21.39583 | 34063 ft | 466 kts | 306° |
| 2026-05-05 19:29 | -21.96205 | 21.34051 | 34063 ft | 467 kts | 306° |
| 2026-05-05 19:29 | -21.92224 | 21.28520 | 34064 ft | 467 kts | 306° |
| 2026-05-05 19:30 | -21.88238 | 21.22983 | 34063 ft | 468 kts | 306° |
| 2026-05-05 19:30 | -21.84249 | 21.17440 | 34063 ft | 468 kts | 306° |
| 2026-05-05 19:31 | -21.80260 | 21.11902 | 34074 ft | 468 kts | 306° |
| 2026-05-05 19:31 | -21.76265 | 21.06364 | 34072 ft | 469 kts | 306° |
| 2026-05-05 19:32 | -21.72264 | 21.00826 | 34070 ft | 469 kts | 306° |
| 2026-05-05 19:32 | -21.68417 | 20.95160 | 34074 ft | 469 kts | 302° |
| 2026-05-05 19:33 | -21.64859 | 20.89284 | 34081 ft | 469 kts | 301° |
| 2026-05-05 19:33 | -21.61298 | 20.83415 | 34083 ft | 469 kts | 302° |
| 2026-05-05 19:34 | -21.57685 | 20.77585 | 34082 ft | 469 kts | 302° |
| 2026-05-05 19:35 | -21.52250 | 20.68903 | 34096 ft | 470 kts | 302° |
| 2026-05-05 19:35 | -21.48588 | 20.63093 | 34088 ft | 469 kts | 302° |
| 2026-05-05 19:36 | -21.44911 | 20.57302 | 34096 ft | 470 kts | 302° |
| 2026-05-05 19:36 | -21.41236 | 20.51509 | 34093 ft | 470 kts | 302° |
| 2026-05-05 19:37 | -21.37556 | 20.45711 | 34099 ft | 470 kts | 302° |
| 2026-05-05 19:37 | -21.33880 | 20.39921 | 34101 ft | 470 kts | 302° |
| 2026-05-05 19:38 | -21.30195 | 20.34122 | 34100 ft | 470 kts | 302° |
| 2026-05-05 19:38 | -21.26507 | 20.28329 | 34105 ft | 470 kts | 303° |
| 2026-05-05 19:39 | -21.22821 | 20.22547 | 34110 ft | 470 kts | 303° |
| 2026-05-05 19:39 | -21.19132 | 20.16765 | 34110 ft | 470 kts | 303° |
| 2026-05-05 19:40 | -21.15441 | 20.10984 | 34110 ft | 470 kts | 303° |
| 2026-05-05 19:40 | -21.12369 | 20.06172 | 34109 ft | 470 kts | 303° |
| 2026-05-05 19:41 | -21.08671 | 20.00388 | 34119 ft | 470 kts | 303° |
| 2026-05-05 19:41 | -21.04977 | 19.94620 | 34119 ft | 471 kts | 302° |
| 2026-05-05 19:42 | -21.01263 | 19.88828 | 34119 ft | 472 kts | 302° |
| 2026-05-05 19:42 | -20.97554 | 19.83031 | 34119 ft | 472 kts | 302° |
| 2026-05-05 19:43 | -20.93837 | 19.77235 | 34127 ft | 472 kts | 303° |
| 2026-05-05 19:43 | -20.90115 | 19.71438 | 34137 ft | 472 kts | 303° |
| 2026-05-05 19:44 | -20.86396 | 19.65646 | 34146 ft | 472 kts | 303° |
| 2026-05-05 19:44 | -20.82675 | 19.59857 | 34143 ft | 472 kts | 302° |
| 2026-05-05 19:45 | -20.78953 | 19.54071 | 34142 ft | 472 kts | 303° |
| 2026-05-05 19:45 | -20.75232 | 19.48292 | 34150 ft | 472 kts | 303° |
| 2026-05-05 19:46 | -20.71504 | 19.42508 | 34146 ft | 473 kts | 303° |
| 2026-05-05 19:46 | -20.67774 | 19.36724 | 34150 ft | 473 kts | 303° |
| 2026-05-05 19:47 | -20.64063 | 19.30981 | 34150 ft | 473 kts | 303° |
| 2026-05-05 19:47 | -20.60329 | 19.25209 | 34150 ft | 473 kts | 303° |
| 2026-05-05 19:48 | -20.56586 | 19.19426 | 34143 ft | 473 kts | 303° |
| 2026-05-05 19:48 | -20.52842 | 19.13647 | 34145 ft | 474 kts | 303° |
| 2026-05-05 19:49 | -20.49093 | 19.07865 | 34150 ft | 474 kts | 303° |
| 2026-05-05 19:49 | -20.45343 | 19.02092 | 34150 ft | 473 kts | 303° |
| 2026-05-05 19:50 | -20.41594 | 18.96319 | 34148 ft | 474 kts | 303° |
| 2026-05-05 19:50 | -20.37830 | 18.90536 | 34145 ft | 474 kts | 303° |
| 2026-05-05 19:51 | -20.34063 | 18.84751 | 34157 ft | 475 kts | 303° |
| 2026-05-05 19:51 | -20.30302 | 18.78973 | 34156 ft | 475 kts | 303° |
| 2026-05-05 19:52 | -20.26527 | 18.73185 | 34152 ft | 475 kts | 303° |
| 2026-05-05 19:52 | -20.22753 | 18.67407 | 34152 ft | 476 kts | 303° |
| 2026-05-05 19:53 | -20.18972 | 18.61623 | 34154 ft | 476 kts | 303° |
| 2026-05-05 19:53 | -20.15189 | 18.55838 | 34157 ft | 476 kts | 303° |
| 2026-05-05 19:54 | -20.11403 | 18.50058 | 34157 ft | 476 kts | 303° |
| 2026-05-05 19:54 | -20.07638 | 18.44312 | 34156 ft | 477 kts | 303° |
| 2026-05-05 19:55 | -20.03809 | 18.38499 | 34157 ft | 477 kts | 303° |
| 2026-05-05 19:55 | -20.00031 | 18.32761 | 34153 ft | 477 kts | 303° |
| 2026-05-05 19:56 | -19.96232 | 18.26990 | 34152 ft | 477 kts | 303° |
| 2026-05-05 19:56 | -19.92418 | 18.21204 | 34157 ft | 477 kts | 303° |
| 2026-05-05 19:57 | -19.88608 | 18.15428 | 34157 ft | 478 kts | 303° |
| 2026-05-05 19:57 | -19.84791 | 18.09648 | 34157 ft | 478 kts | 303° |
| 2026-05-05 19:58 | -19.80975 | 18.03878 | 34152 ft | 478 kts | 303° |
| 2026-05-05 19:58 | -19.77152 | 17.98100 | 34157 ft | 478 kts | 303° |
| 2026-05-05 19:59 | -19.73334 | 17.92336 | 34154 ft | 478 kts | 303° |
| 2026-05-05 19:59 | -19.69507 | 17.86567 | 34152 ft | 478 kts | 303° |
| 2026-05-05 20:00 | -19.65680 | 17.80797 | 34153 ft | 478 kts | 303° |
| 2026-05-05 20:00 | -19.61857 | 17.75038 | 34154 ft | 478 kts | 303° |
| 2026-05-05 20:01 | -19.58027 | 17.69280 | 34156 ft | 478 kts | 303° |
| 2026-05-05 20:01 | -19.54185 | 17.63510 | 34152 ft | 479 kts | 303° |
| 2026-05-05 20:02 | -19.50346 | 17.57749 | 34144 ft | 479 kts | 303° |
| 2026-05-05 20:02 | -19.46506 | 17.51991 | 34144 ft | 479 kts | 303° |
| 2026-05-05 20:03 | -19.42684 | 17.46264 | 34145 ft | 479 kts | 303° |
| 2026-05-05 20:03 | -19.38838 | 17.40507 | 34146 ft | 479 kts | 303° |
| 2026-05-05 20:04 | -19.34986 | 17.34746 | 34143 ft | 479 kts | 303° |
| 2026-05-05 20:04 | -19.31126 | 17.28979 | 34136 ft | 480 kts | 303° |
| 2026-05-05 20:05 | -19.27270 | 17.23223 | 34137 ft | 479 kts | 303° |
| 2026-05-05 20:05 | -19.23406 | 17.17462 | 34131 ft | 480 kts | 303° |
| 2026-05-05 20:06 | -19.19541 | 17.11704 | 34128 ft | 480 kts | 303° |
| 2026-05-05 20:06 | -19.15672 | 17.05945 | 34124 ft | 481 kts | 303° |
| 2026-05-05 20:07 | -19.11960 | 17.00077 | 34110 ft | 480 kts | 300° |
| 2026-05-05 20:07 | -19.08443 | 16.94079 | 34110 ft | 480 kts | 300° |
| 2026-05-05 20:08 | -19.04912 | 16.88090 | 34101 ft | 480 kts | 300° |
| 2026-05-05 20:08 | -19.01338 | 16.82124 | 34099 ft | 480 kts | 301° |
| 2026-05-05 20:09 | -18.97748 | 16.76174 | 34096 ft | 481 kts | 301° |
| 2026-05-05 20:09 | -18.94145 | 16.70216 | 34082 ft | 481 kts | 301° |
| 2026-05-05 20:10 | -18.90545 | 16.64259 | 34085 ft | 481 kts | 301° |
| 2026-05-05 20:10 | -18.86949 | 16.58311 | 34073 ft | 481 kts | 301° |
| 2026-05-05 20:11 | -18.83346 | 16.52359 | 34075 ft | 481 kts | 301° |
| 2026-05-05 20:11 | -18.79741 | 16.46414 | 34064 ft | 481 kts | 301° |
| 2026-05-05 20:12 | -18.76104 | 16.40473 | 34063 ft | 481 kts | 301° |
| 2026-05-05 20:12 | -18.72424 | 16.34581 | 34054 ft | 481 kts | 302° |
| 2026-05-05 20:13 | -18.68737 | 16.28685 | 34055 ft | 481 kts | 302° |
| 2026-05-05 20:13 | -18.65055 | 16.22790 | 34047 ft | 481 kts | 302° |
| 2026-05-05 20:14 | -18.61378 | 16.16890 | 34045 ft | 481 kts | 302° |
| 2026-05-05 20:14 | -18.57724 | 16.11037 | 34030 ft | 481 kts | 302° |
| 2026-05-05 20:15 | -18.54005 | 16.05123 | 34031 ft | 481 kts | 303° |
| 2026-05-05 20:15 | -18.50198 | 15.99386 | 34035 ft | 481 kts | 303° |
| 2026-05-05 20:16 | -18.46306 | 15.93589 | 34032 ft | 482 kts | 303° |
| 2026-05-05 20:16 | -18.42475 | 15.87846 | 34027 ft | 482 kts | 303° |
| 2026-05-05 20:17 | -18.38633 | 15.82065 | 34028 ft | 482 kts | 303° |
| 2026-05-05 20:17 | -18.34789 | 15.76277 | 34022 ft | 482 kts | 303° |
| 2026-05-05 20:18 | -18.30949 | 15.70498 | 34023 ft | 482 kts | 303° |
| 2026-05-05 20:18 | -18.27101 | 15.64715 | 34026 ft | 481 kts | 303° |
| 2026-05-05 20:19 | -18.23256 | 15.58949 | 34022 ft | 482 kts | 303° |
| 2026-05-05 20:19 | -18.19407 | 15.53176 | 34022 ft | 482 kts | 303° |
| 2026-05-05 20:20 | -18.15554 | 15.47401 | 34035 ft | 482 kts | 303° |
| 2026-05-05 20:20 | -18.11697 | 15.41627 | 34032 ft | 483 kts | 303° |
| 2026-05-05 20:21 | -18.07836 | 15.35848 | 34045 ft | 483 kts | 303° |
| 2026-05-05 20:21 | -18.03976 | 15.30082 | 34030 ft | 483 kts | 303° |
| 2026-05-05 20:22 | -18.00106 | 15.24303 | 34034 ft | 483 kts | 303° |
| 2026-05-05 20:22 | -17.96236 | 15.18530 | 34045 ft | 483 kts | 303° |
| 2026-05-05 20:23 | -17.92370 | 15.12766 | 34047 ft | 482 kts | 303° |
| 2026-05-05 20:23 | -17.88505 | 15.07009 | 34046 ft | 482 kts | 303° |
| 2026-05-05 20:24 | -17.84636 | 15.01256 | 34044 ft | 483 kts | 303° |
| 2026-05-05 20:24 | -17.80762 | 14.95500 | 34047 ft | 483 kts | 304° |
| 2026-05-05 20:25 | -17.76910 | 14.89780 | 34046 ft | 483 kts | 303° |
| 2026-05-05 20:25 | -17.73006 | 14.83984 | 34044 ft | 484 kts | 303° |
| 2026-05-05 20:26 | -17.69145 | 14.78262 | 34055 ft | 484 kts | 304° |
| 2026-05-05 20:26 | -17.65258 | 14.72499 | 34054 ft | 484 kts | 303° |
| 2026-05-05 20:27 | -17.61367 | 14.66740 | 34055 ft | 484 kts | 304° |
| 2026-05-05 20:27 | -17.57474 | 14.60988 | 34054 ft | 484 kts | 304° |
| 2026-05-05 20:28 | -17.53576 | 14.55231 | 34055 ft | 485 kts | 304° |
| 2026-05-05 20:28 | -17.50312 | 14.50412 | 34058 ft | 485 kts | 304° |
| 2026-05-05 20:29 | -17.46401 | 14.44644 | 34063 ft | 485 kts | 304° |
| 2026-05-05 20:29 | -17.42497 | 14.38893 | 34066 ft | 484 kts | 304° |
| 2026-05-05 20:30 | -17.39072 | 14.32850 | 34071 ft | 482 kts | 295° |
| 2026-05-05 20:30 | -17.36162 | 14.26519 | 34073 ft | 483 kts | 294° |
| 2026-05-05 20:31 | -17.33328 | 14.20146 | 34075 ft | 483 kts | 294° |
| 2026-05-05 20:31 | -17.30495 | 14.13782 | 34079 ft | 483 kts | 294° |
| 2026-05-05 20:32 | -17.27644 | 14.07419 | 34088 ft | 483 kts | 294° |
| 2026-05-05 20:32 | -17.24805 | 14.01104 | 34096 ft | 483 kts | 294° |
| 2026-05-05 20:33 | -17.21948 | 13.94753 | 34098 ft | 483 kts | 294° |
| 2026-05-05 20:33 | -17.19084 | 13.88391 | 34100 ft | 484 kts | 294° |
| 2026-05-05 20:34 | -17.16218 | 13.82030 | 34101 ft | 484 kts | 294° |
| 2026-05-05 20:34 | -17.13349 | 13.75673 | 34109 ft | 483 kts | 294° |
| 2026-05-05 20:35 | -17.10477 | 13.69319 | 34109 ft | 483 kts | 294° |
| 2026-05-05 20:35 | -17.07606 | 13.62969 | 34119 ft | 483 kts | 294° |
| 2026-05-05 20:36 | -17.04736 | 13.56620 | 34123 ft | 483 kts | 294° |
| 2026-05-05 20:36 | -17.01859 | 13.50274 | 34142 ft | 483 kts | 294° |
| 2026-05-05 20:37 | -16.98982 | 13.43929 | 34161 ft | 483 kts | 294° |
| 2026-05-05 20:37 | -16.96106 | 13.37587 | 34166 ft | 483 kts | 294° |
| 2026-05-05 20:38 | -16.93229 | 13.31255 | 34175 ft | 483 kts | 294° |
| 2026-05-05 20:38 | -16.90345 | 13.24917 | 34175 ft | 483 kts | 294° |
| 2026-05-05 20:39 | -16.87461 | 13.18583 | 34184 ft | 483 kts | 294° |
| 2026-05-05 20:39 | -16.84587 | 13.12280 | 34192 ft | 484 kts | 294° |
| 2026-05-05 20:40 | -16.81697 | 13.05941 | 34192 ft | 484 kts | 294° |
| 2026-05-05 20:40 | -16.78799 | 12.99595 | 34191 ft | 484 kts | 294° |
| 2026-05-05 20:41 | -16.75904 | 12.93261 | 34199 ft | 484 kts | 294° |
| 2026-05-05 20:41 | -16.73002 | 12.86918 | 34201 ft | 484 kts | 294° |
| 2026-05-05 20:42 | -16.70103 | 12.80589 | 34201 ft | 484 kts | 294° |
| 2026-05-05 20:42 | -16.67200 | 12.74252 | 34214 ft | 484 kts | 294° |
| 2026-05-05 20:43 | -16.64296 | 12.67917 | 34205 ft | 484 kts | 294° |
| 2026-05-05 20:43 | -16.61388 | 12.61589 | 34213 ft | 484 kts | 294° |
| 2026-05-05 20:44 | -16.58481 | 12.55259 | 34214 ft | 484 kts | 294° |
| 2026-05-05 20:44 | -16.55645 | 12.48896 | 34215 ft | 483 kts | 293° |
| 2026-05-05 20:45 | -16.51409 | 12.39347 | 34212 ft | 484 kts | 294° |
| 2026-05-05 20:45 | -16.48570 | 12.32994 | 34211 ft | 484 kts | 294° |
| 2026-05-05 20:46 | -16.45725 | 12.26640 | 34223 ft | 484 kts | 294° |
| 2026-05-05 20:46 | -16.42879 | 12.20291 | 34222 ft | 484 kts | 294° |
| 2026-05-05 20:47 | -16.40029 | 12.13937 | 34215 ft | 484 kts | 294° |
| 2026-05-05 20:47 | -16.37178 | 12.07592 | 34223 ft | 484 kts | 294° |
| 2026-05-05 20:48 | -16.34326 | 12.01246 | 34212 ft | 484 kts | 294° |
| 2026-05-05 20:48 | -16.31473 | 11.94901 | 34217 ft | 484 kts | 294° |
| 2026-05-05 20:49 | -16.28616 | 11.88554 | 34228 ft | 484 kts | 294° |
| 2026-05-05 20:49 | -16.25756 | 11.82212 | 34222 ft | 484 kts | 294° |
| 2026-05-05 20:50 | -16.22891 | 11.75864 | 34232 ft | 484 kts | 294° |
| 2026-05-05 20:50 | -16.20024 | 11.69517 | 34221 ft | 485 kts | 294° |
| 2026-05-05 20:51 | -16.17159 | 11.63175 | 34229 ft | 485 kts | 294° |
| 2026-05-05 20:51 | -16.14287 | 11.56828 | 34226 ft | 485 kts | 294° |
| 2026-05-05 20:52 | -16.11414 | 11.50480 | 34230 ft | 485 kts | 294° |
| 2026-05-05 20:52 | -16.08541 | 11.44141 | 34232 ft | 484 kts | 294° |
| 2026-05-05 20:53 | -16.05661 | 11.37797 | 34232 ft | 486 kts | 294° |
| 2026-05-05 20:53 | -16.02778 | 11.31455 | 34233 ft | 485 kts | 294° |
| 2026-05-05 20:54 | -15.99655 | 11.25235 | 34232 ft | 487 kts | 302° |
| 2026-05-05 20:54 | -15.95544 | 11.19638 | 34231 ft | 488 kts | 307° |
| 2026-05-05 20:55 | -15.91225 | 11.14178 | 34228 ft | 489 kts | 308° |
| 2026-05-05 20:55 | -15.86870 | 11.08735 | 34229 ft | 489 kts | 308° |
| 2026-05-05 20:56 | -15.82530 | 11.03289 | 34231 ft | 490 kts | 308° |
| 2026-05-05 20:56 | -15.78191 | 10.97832 | 34229 ft | 490 kts | 308° |
| 2026-05-05 20:57 | -15.73857 | 10.92377 | 34222 ft | 490 kts | 308° |
| 2026-05-05 20:57 | -15.69519 | 10.86922 | 34227 ft | 490 kts | 308° |
| 2026-05-05 20:58 | -15.65179 | 10.81462 | 34231 ft | 490 kts | 308° |
| 2026-05-05 20:58 | -15.60836 | 10.76006 | 34226 ft | 490 kts | 308° |
| 2026-05-05 20:59 | -15.56491 | 10.70558 | 34225 ft | 490 kts | 308° |
| 2026-05-05 20:59 | -15.52148 | 10.65111 | 34225 ft | 491 kts | 308° |
| 2026-05-05 21:00 | -15.47798 | 10.59655 | 34223 ft | 490 kts | 308° |
| 2026-05-05 21:00 | -15.43443 | 10.54201 | 34224 ft | 491 kts | 308° |
| 2026-05-05 21:01 | -15.39094 | 10.48754 | 34219 ft | 491 kts | 308° |
| 2026-05-05 21:01 | -15.34732 | 10.43300 | 34225 ft | 491 kts | 308° |
| 2026-05-05 21:02 | -15.30376 | 10.37858 | 34222 ft | 491 kts | 308° |
| 2026-05-05 21:02 | -15.26014 | 10.32417 | 34217 ft | 491 kts | 308° |
| 2026-05-05 21:03 | -15.21653 | 10.26975 | 34223 ft | 491 kts | 308° |
| 2026-05-05 21:03 | -15.17293 | 10.21540 | 34225 ft | 491 kts | 308° |
| 2026-05-05 21:04 | -15.12927 | 10.16099 | 34216 ft | 491 kts | 308° |
| 2026-05-05 21:04 | -15.08562 | 10.10661 | 34223 ft | 491 kts | 308° |
| 2026-05-05 21:05 | -15.04191 | 10.05219 | 34221 ft | 492 kts | 308° |
| 2026-05-05 21:05 | -14.99941 | 9.99693 | 34217 ft | 490 kts | 302° |
| 2026-05-05 21:06 | -14.96309 | 9.93725 | 34217 ft | 490 kts | 300° |
| 2026-05-05 21:06 | -14.92789 | 9.87685 | 34200 ft | 491 kts | 300° |
| 2026-05-05 21:07 | -14.89286 | 9.81642 | 34164 ft | 491 kts | 300° |
| 2026-05-05 21:07 | -14.85763 | 9.75589 | 34129 ft | 491 kts | 300° |
| 2026-05-05 21:08 | -14.82238 | 9.69551 | 34125 ft | 491 kts | 300° |
| 2026-05-05 21:08 | -14.78703 | 9.63505 | 34119 ft | 491 kts | 300° |
| 2026-05-05 21:09 | -14.75737 | 9.58436 | 34119 ft | 491 kts | 300° |
| 2026-05-05 21:09 | -14.72203 | 9.52397 | 34119 ft | 492 kts | 300° |
| 2026-05-05 21:10 | -14.68665 | 9.46359 | 34119 ft | 491 kts | 300° |
| 2026-05-05 21:10 | -14.65125 | 9.40322 | 34119 ft | 492 kts | 300° |
| 2026-05-05 21:11 | -14.61582 | 9.34284 | 34109 ft | 491 kts | 300° |
| 2026-05-05 21:11 | -14.58039 | 9.28252 | 34110 ft | 491 kts | 300° |
| 2026-05-05 21:12 | -14.54516 | 9.22261 | 34110 ft | 492 kts | 300° |
| 2026-05-05 21:12 | -14.50968 | 9.16229 | 34109 ft | 491 kts | 300° |
| 2026-05-05 21:13 | -14.47424 | 9.10203 | 34109 ft | 492 kts | 300° |
| 2026-05-05 21:13 | -14.43875 | 9.04176 | 34110 ft | 491 kts | 300° |
| 2026-05-05 21:14 | -14.40325 | 8.98151 | 34101 ft | 492 kts | 300° |
| 2026-05-05 21:14 | -14.36768 | 8.92120 | 34101 ft | 492 kts | 300° |
| 2026-05-05 21:15 | -14.33212 | 8.86093 | 34101 ft | 491 kts | 300° |
| 2026-05-05 21:15 | -14.29661 | 8.80084 | 34100 ft | 491 kts | 300° |
| 2026-05-05 21:16 | -14.26113 | 8.74086 | 34100 ft | 491 kts | 300° |
| 2026-05-05 21:16 | -14.22553 | 8.68070 | 34100 ft | 491 kts | 300° |
| 2026-05-05 21:17 | -14.18992 | 8.62056 | 34101 ft | 491 kts | 300° |
| 2026-05-05 21:17 | -14.15437 | 8.56057 | 34100 ft | 491 kts | 300° |
| 2026-05-05 21:18 | -14.11881 | 8.50053 | 34101 ft | 491 kts | 300° |
| 2026-05-05 21:18 | -14.08318 | 8.44046 | 34097 ft | 491 kts | 300° |
| 2026-05-05 21:19 | -14.04755 | 8.38050 | 34095 ft | 490 kts | 300° |
| 2026-05-05 21:19 | -14.01200 | 8.32069 | 34087 ft | 490 kts | 300° |
| 2026-05-05 21:20 | -13.97635 | 8.26073 | 34087 ft | 490 kts | 300° |
| 2026-05-05 21:20 | -13.94074 | 8.20089 | 34092 ft | 491 kts | 300° |
| 2026-05-05 21:21 | -13.90508 | 8.14102 | 34096 ft | 490 kts | 300° |
| 2026-05-05 21:21 | -13.86938 | 8.08114 | 34089 ft | 491 kts | 300° |
| 2026-05-05 21:22 | -13.83375 | 8.02132 | 34090 ft | 490 kts | 300° |
| 2026-05-05 21:22 | -13.79808 | 7.96154 | 34088 ft | 490 kts | 300° |
| 2026-05-05 21:23 | -13.76237 | 7.90175 | 34093 ft | 490 kts | 300° |
| 2026-05-05 21:23 | -13.72666 | 7.84201 | 34092 ft | 491 kts | 300° |
| 2026-05-05 21:24 | -13.69090 | 7.78223 | 34081 ft | 491 kts | 300° |
| 2026-05-05 21:24 | -13.65511 | 7.72244 | 34083 ft | 491 kts | 300° |
| 2026-05-05 21:25 | -13.61936 | 7.66273 | 34083 ft | 491 kts | 300° |
| 2026-05-05 21:25 | -13.58353 | 7.60292 | 34082 ft | 491 kts | 300° |
| 2026-05-05 21:26 | -13.54772 | 7.54322 | 34081 ft | 491 kts | 300° |
| 2026-05-05 21:26 | -13.51180 | 7.48338 | 34083 ft | 491 kts | 300° |
| 2026-05-05 21:27 | -13.47590 | 7.42364 | 34081 ft | 491 kts | 300° |
| 2026-05-05 21:27 | -13.43997 | 7.36386 | 34082 ft | 492 kts | 300° |
| 2026-05-05 21:28 | -13.40402 | 7.30407 | 34085 ft | 492 kts | 300° |
| 2026-05-05 21:28 | -13.36807 | 7.24432 | 34083 ft | 492 kts | 300° |
| 2026-05-05 21:29 | -13.33212 | 7.18457 | 34081 ft | 492 kts | 300° |
| 2026-05-05 21:29 | -13.29609 | 7.12483 | 34084 ft | 492 kts | 300° |
| 2026-05-05 21:30 | -13.26002 | 7.06504 | 34073 ft | 492 kts | 300° |
| 2026-05-05 21:30 | -13.22402 | 7.00539 | 34075 ft | 492 kts | 300° |
| 2026-05-05 21:31 | -13.18798 | 6.94567 | 34074 ft | 492 kts | 300° |
| 2026-05-05 21:31 | -13.15193 | 6.88598 | 34072 ft | 492 kts | 300° |
| 2026-05-05 21:32 | -13.11584 | 6.82632 | 34073 ft | 493 kts | 300° |
| 2026-05-05 21:32 | -13.07965 | 6.76656 | 34073 ft | 493 kts | 300° |
| 2026-05-05 21:33 | -13.04346 | 6.70683 | 34073 ft | 493 kts | 300° |
| 2026-05-05 21:33 | -13.00725 | 6.64708 | 34079 ft | 493 kts | 301° |
| 2026-05-05 21:34 | -12.97106 | 6.58739 | 34081 ft | 493 kts | 300° |
| 2026-05-05 21:34 | -12.93478 | 6.52762 | 34085 ft | 493 kts | 300° |
| 2026-05-05 21:35 | -12.89861 | 6.46796 | 34085 ft | 493 kts | 300° |
| 2026-05-05 21:35 | -12.86229 | 6.40817 | 34082 ft | 493 kts | 300° |
| 2026-05-05 21:36 | -12.82598 | 6.34852 | 34081 ft | 493 kts | 300° |
| 2026-05-05 21:36 | -12.78969 | 6.28881 | 34081 ft | 493 kts | 300° |
| 2026-05-05 21:37 | -12.75340 | 6.22914 | 34085 ft | 493 kts | 300° |
| 2026-05-05 21:37 | -12.71706 | 6.16953 | 34081 ft | 493 kts | 300° |
| 2026-05-05 21:38 | -12.68069 | 6.10987 | 34083 ft | 494 kts | 300° |
| 2026-05-05 21:38 | -12.64432 | 6.05021 | 34085 ft | 494 kts | 300° |
| 2026-05-05 21:39 | -12.60791 | 5.99055 | 34082 ft | 494 kts | 300° |
| 2026-05-05 21:39 | -12.57151 | 5.93096 | 34088 ft | 494 kts | 300° |
| 2026-05-05 21:40 | -12.53509 | 5.87136 | 34048 ft | 494 kts | 300° |
| 2026-05-05 21:40 | -12.49859 | 5.81174 | 34007 ft | 494 kts | 301° |
| 2026-05-05 21:41 | -12.46209 | 5.75213 | 33965 ft | 494 kts | 301° |
| 2026-05-05 21:41 | -12.42559 | 5.69244 | 33925 ft | 495 kts | 301° |
| 2026-05-05 21:42 | -12.38905 | 5.63281 | 33925 ft | 495 kts | 301° |
| 2026-05-05 21:42 | -12.35246 | 5.57311 | 33924 ft | 495 kts | 301° |
| 2026-05-05 21:43 | -12.31587 | 5.51349 | 33924 ft | 495 kts | 301° |
| 2026-05-05 21:43 | -12.27929 | 5.45388 | 33925 ft | 495 kts | 301° |
| 2026-05-05 21:44 | -12.24268 | 5.39429 | 33925 ft | 495 kts | 301° |
| 2026-05-05 21:44 | -12.20603 | 5.33468 | 33924 ft | 495 kts | 301° |
| 2026-05-05 21:45 | -12.16945 | 5.27508 | 33925 ft | 495 kts | 301° |
| 2026-05-05 21:45 | -12.13281 | 5.21557 | 33925 ft | 495 kts | 301° |
| 2026-05-05 21:46 | -12.09614 | 5.15606 | 33925 ft | 495 kts | 301° |
| 2026-05-05 21:46 | -12.05945 | 5.09654 | 33925 ft | 495 kts | 301° |
| 2026-05-05 21:47 | -12.02280 | 5.03704 | 33924 ft | 495 kts | 301° |
| 2026-05-05 21:47 | -11.98621 | 4.97752 | 33925 ft | 495 kts | 300° |
| 2026-05-05 21:48 | -11.95082 | 4.91731 | 33925 ft | 496 kts | 299° |
| 2026-05-05 21:48 | -11.92165 | 4.86694 | 33925 ft | 496 kts | 299° |
| 2026-05-05 21:49 | -11.88635 | 4.80636 | 33923 ft | 496 kts | 300° |
| 2026-05-05 21:49 | -11.85091 | 4.74590 | 33925 ft | 496 kts | 300° |
| 2026-05-05 21:50 | -11.81543 | 4.68552 | 33925 ft | 496 kts | 300° |
| 2026-05-05 21:50 | -11.77999 | 4.62523 | 33925 ft | 496 kts | 300° |
| 2026-05-05 21:51 | -11.74446 | 4.56488 | 33924 ft | 496 kts | 300° |
| 2026-05-05 21:51 | -11.70890 | 4.50449 | 33924 ft | 496 kts | 300° |
| 2026-05-05 21:52 | -11.65561 | 4.41398 | 33926 ft | 496 kts | 300° |
| 2026-05-05 21:53 | -11.62002 | 4.35369 | 33924 ft | 496 kts | 300° |
| 2026-05-05 21:53 | -11.58454 | 4.29351 | 33925 ft | 495 kts | 300° |
| 2026-05-05 21:54 | -11.54902 | 4.23330 | 33925 ft | 495 kts | 300° |
| 2026-05-05 21:54 | -11.51350 | 4.17314 | 33925 ft | 495 kts | 300° |
| 2026-05-05 21:55 | -11.47793 | 4.11296 | 33925 ft | 496 kts | 300° |
| 2026-05-05 21:55 | -11.44229 | 4.05267 | 33924 ft | 496 kts | 300° |
| 2026-05-05 21:56 | -11.40669 | 3.99247 | 33924 ft | 495 kts | 300° |
| 2026-05-05 21:56 | -11.37105 | 3.93231 | 33923 ft | 496 kts | 300° |
| 2026-05-05 21:57 | -11.33543 | 3.87219 | 33925 ft | 496 kts | 300° |
| 2026-05-05 21:57 | -11.29976 | 3.81201 | 33925 ft | 496 kts | 300° |
| 2026-05-05 21:58 | -11.26409 | 3.75187 | 33925 ft | 496 kts | 300° |
| 2026-05-05 21:58 | -11.22842 | 3.69169 | 33925 ft | 496 kts | 300° |
| 2026-05-05 21:59 | -11.19273 | 3.63157 | 33925 ft | 497 kts | 300° |
| 2026-05-05 21:59 | -11.15696 | 3.57137 | 33925 ft | 496 kts | 300° |
| 2026-05-05 22:00 | -11.12118 | 3.51121 | 33925 ft | 497 kts | 300° |
| 2026-05-05 22:00 | -11.08532 | 3.45093 | 33925 ft | 497 kts | 300° |
| 2026-05-05 22:01 | -11.04955 | 3.39080 | 33924 ft | 497 kts | 300° |
| 2026-05-05 22:01 | -11.01371 | 3.33065 | 33926 ft | 497 kts | 300° |
| 2026-05-05 22:02 | -10.97785 | 3.27048 | 33924 ft | 497 kts | 300° |
| 2026-05-05 22:02 | -10.94196 | 3.21025 | 33924 ft | 497 kts | 300° |
| 2026-05-05 22:03 | -10.90607 | 3.15009 | 33925 ft | 498 kts | 300° |
| 2026-05-05 22:03 | -10.87018 | 3.08994 | 33925 ft | 497 kts | 300° |
| 2026-05-05 22:04 | -10.83427 | 3.02982 | 33924 ft | 498 kts | 300° |
| 2026-05-05 22:04 | -10.79832 | 2.96964 | 33924 ft | 497 kts | 300° |
| 2026-05-05 22:05 | -10.76239 | 2.90951 | 33925 ft | 498 kts | 300° |
| 2026-05-05 22:05 | -10.72636 | 2.84931 | 33925 ft | 498 kts | 300° |
| 2026-05-05 22:06 | -10.69035 | 2.78918 | 33925 ft | 498 kts | 300° |
| 2026-05-05 22:06 | -10.65436 | 2.72905 | 33924 ft | 498 kts | 300° |
| 2026-05-05 22:07 | -10.61836 | 2.66895 | 33924 ft | 498 kts | 300° |
| 2026-05-05 22:07 | -10.58229 | 2.60883 | 33924 ft | 498 kts | 300° |
| 2026-05-05 22:08 | -10.54623 | 2.54870 | 33924 ft | 498 kts | 300° |
| 2026-05-05 22:08 | -10.51013 | 2.48854 | 33924 ft | 498 kts | 300° |
| 2026-05-05 22:09 | -10.47409 | 2.42852 | 33925 ft | 498 kts | 300° |
| 2026-05-05 22:09 | -10.43792 | 2.36833 | 33931 ft | 499 kts | 300° |
| 2026-05-05 22:10 | -10.40175 | 2.30817 | 33934 ft | 499 kts | 300° |
| 2026-05-05 22:10 | -10.36555 | 2.24799 | 33934 ft | 499 kts | 300° |
| 2026-05-05 22:11 | -10.32934 | 2.18780 | 33933 ft | 499 kts | 301° |
| 2026-05-05 22:11 | -10.29309 | 2.12762 | 33933 ft | 500 kts | 301° |
| 2026-05-05 22:12 | -10.25685 | 2.06747 | 33934 ft | 500 kts | 301° |
| 2026-05-05 22:12 | -10.22059 | 2.00731 | 33934 ft | 500 kts | 301° |
| 2026-05-05 22:13 | -10.18429 | 1.94706 | 33934 ft | 500 kts | 301° |
| 2026-05-05 22:13 | -10.14798 | 1.88697 | 33935 ft | 500 kts | 301° |
| 2026-05-05 22:14 | -10.11189 | 1.82716 | 33934 ft | 500 kts | 301° |
| 2026-05-05 22:14 | -10.07532 | 1.76663 | 33969 ft | 499 kts | 301° |
| 2026-05-05 22:15 | -10.03903 | 1.70660 | 34005 ft | 499 kts | 301° |
| 2026-05-05 22:15 | -10.00270 | 1.64654 | 34055 ft | 499 kts | 301° |
| 2026-05-05 22:16 | -9.96640 | 1.58650 | 34075 ft | 499 kts | 301° |
| 2026-05-05 22:16 | -9.93008 | 1.52648 | 34074 ft | 499 kts | 301° |
| 2026-05-05 22:17 | -9.89372 | 1.46642 | 34056 ft | 499 kts | 301° |
| 2026-05-05 22:17 | -9.85737 | 1.40647 | 34046 ft | 499 kts | 301° |
| 2026-05-05 22:18 | -9.82097 | 1.34646 | 34047 ft | 500 kts | 301° |
| 2026-05-05 22:18 | -9.78457 | 1.28643 | 34032 ft | 500 kts | 301° |
| 2026-05-05 22:19 | -9.74842 | 1.22684 | 34046 ft | 500 kts | 301° |
| 2026-05-05 22:19 | -9.71175 | 1.16644 | 34044 ft | 500 kts | 301° |
| 2026-05-05 22:20 | -9.67533 | 1.10646 | 34043 ft | 500 kts | 301° |
| 2026-05-05 22:20 | -9.63913 | 1.04688 | 34029 ft | 500 kts | 301° |
| 2026-05-05 22:21 | -9.60265 | 0.98690 | 34035 ft | 500 kts | 301° |
| 2026-05-05 22:21 | -9.56594 | 0.92659 | 34035 ft | 499 kts | 301° |
| 2026-05-05 22:22 | -9.52952 | 0.86672 | 34029 ft | 499 kts | 301° |
| 2026-05-05 22:22 | -9.49304 | 0.80683 | 34029 ft | 499 kts | 301° |
| 2026-05-05 22:23 | -9.45658 | 0.74699 | 34029 ft | 500 kts | 301° |
| 2026-05-05 22:23 | -9.42002 | 0.68706 | 34031 ft | 500 kts | 301° |
| 2026-05-05 22:24 | -9.38377 | 0.62761 | 34040 ft | 499 kts | 301° |
| 2026-05-05 22:24 | -9.34725 | 0.56773 | 34033 ft | 500 kts | 301° |
| 2026-05-05 22:25 | -9.31045 | 0.50748 | 34022 ft | 500 kts | 301° |
| 2026-05-05 22:25 | -9.27412 | 0.44802 | 34031 ft | 500 kts | 301° |
| 2026-05-05 22:26 | -9.23735 | 0.38785 | 34028 ft | 500 kts | 301° |
| 2026-05-05 22:26 | -9.20101 | 0.32841 | 34025 ft | 499 kts | 301° |
| 2026-05-05 22:27 | -9.16419 | 0.26822 | 34025 ft | 500 kts | 301° |
| 2026-05-05 22:27 | -9.12762 | 0.20844 | 34025 ft | 500 kts | 301° |
| 2026-05-05 22:28 | -9.09123 | 0.14899 | 34025 ft | 500 kts | 301° |
| 2026-05-05 22:28 | -9.06053 | 0.09889 | 34023 ft | 500 kts | 301° |
| 2026-05-05 22:29 | -9.01798 | 0.02946 | 34007 ft | 500 kts | 301° |
| 2026-05-05 22:29 | -8.99966 | -0.00044 | 34206 ft | 498 kts | 301° |
| 2026-05-05 22:29 | -8.98161 | -0.03020 | 34526 ft | 494 kts | 300° |
| 2026-05-05 22:29 | -8.96972 | -0.05024 | 34747 ft | 491 kts | 300° |
| 2026-05-05 22:30 | -8.95236 | -0.07982 | 35057 ft | 487 kts | 300° |
| 2026-05-05 22:30 | -8.93513 | -0.10931 | 35259 ft | 486 kts | 300° |
| 2026-05-05 22:30 | -8.91790 | -0.13876 | 35385 ft | 487 kts | 300° |
| 2026-05-05 22:30 | -8.90068 | -0.16813 | 35530 ft | 486 kts | 300° |
| 2026-05-05 22:31 | -8.88335 | -0.19757 | 35676 ft | 486 kts | 300° |
| 2026-05-05 22:31 | -8.86604 | -0.22693 | 35814 ft | 486 kts | 300° |
| 2026-05-05 22:31 | -8.84871 | -0.25629 | 35921 ft | 487 kts | 300° |
| 2026-05-05 22:32 | -8.81377 | -0.31536 | 35930 ft | 491 kts | 301° |
| 2026-05-05 22:32 | -8.77869 | -0.37467 | 35931 ft | 492 kts | 300° |
| 2026-05-05 22:33 | -8.74354 | -0.43410 | 35932 ft | 492 kts | 300° |
| 2026-05-05 22:33 | -8.70846 | -0.49340 | 35933 ft | 492 kts | 300° |
| 2026-05-05 22:34 | -8.67330 | -0.55278 | 35937 ft | 492 kts | 300° |
| 2026-05-05 22:34 | -8.63820 | -0.61206 | 35933 ft | 492 kts | 300° |
| 2026-05-05 22:35 | -8.60303 | -0.67145 | 35937 ft | 492 kts | 301° |
| 2026-05-05 22:35 | -8.56786 | -0.73077 | 35929 ft | 492 kts | 301° |
| 2026-05-05 22:36 | -8.53265 | -0.79012 | 35933 ft | 493 kts | 301° |
| 2026-05-05 22:36 | -8.49742 | -0.84949 | 35932 ft | 493 kts | 301° |
| 2026-05-05 22:37 | -8.46219 | -0.90888 | 35935 ft | 493 kts | 301° |
| 2026-05-05 22:37 | -8.42697 | -0.96819 | 35934 ft | 493 kts | 301° |
| 2026-05-05 22:38 | -8.39167 | -1.02756 | 35934 ft | 493 kts | 301° |
| 2026-05-05 22:38 | -8.35661 | -1.08652 | 35934 ft | 493 kts | 301° |
| 2026-05-05 22:39 | -8.32108 | -1.14629 | 35937 ft | 493 kts | 301° |
| 2026-05-05 22:39 | -8.28575 | -1.20569 | 35934 ft | 493 kts | 301° |
| 2026-05-05 22:40 | -8.25044 | -1.26503 | 35935 ft | 493 kts | 301° |
| 2026-05-05 22:40 | -8.21530 | -1.32405 | 35934 ft | 494 kts | 301° |
| 2026-05-05 22:41 | -8.17994 | -1.38343 | 35962 ft | 494 kts | 301° |
| 2026-05-05 22:41 | -8.14449 | -1.44287 | 35954 ft | 494 kts | 301° |
| 2026-05-05 22:42 | -8.10911 | -1.50224 | 35953 ft | 494 kts | 301° |
| 2026-05-05 22:42 | -8.07345 | -1.56208 | 35953 ft | 494 kts | 301° |
| 2026-05-05 22:43 | -8.03801 | -1.62149 | 35952 ft | 494 kts | 301° |
| 2026-05-05 22:43 | -8.00254 | -1.68092 | 35953 ft | 494 kts | 301° |
| 2026-05-05 22:44 | -7.96710 | -1.74027 | 35953 ft | 494 kts | 301° |
| 2026-05-05 22:44 | -7.93187 | -1.79924 | 35952 ft | 494 kts | 301° |
| 2026-05-05 22:45 | -7.89637 | -1.85860 | 35953 ft | 494 kts | 301° |
| 2026-05-05 22:45 | -7.86084 | -1.91800 | 35953 ft | 494 kts | 301° |
| 2026-05-05 22:46 | -7.82536 | -1.97734 | 35952 ft | 494 kts | 301° |
| 2026-05-05 22:46 | -7.78964 | -2.03709 | 35953 ft | 494 kts | 301° |
| 2026-05-05 22:47 | -7.75410 | -2.09646 | 35952 ft | 495 kts | 301° |
| 2026-05-05 22:47 | -7.71880 | -2.15544 | 35953 ft | 494 kts | 301° |
| 2026-05-05 22:48 | -7.68307 | -2.21512 | 35953 ft | 494 kts | 301° |
| 2026-05-05 22:48 | -7.64747 | -2.27446 | 35953 ft | 494 kts | 301° |
| 2026-05-05 22:49 | -7.61188 | -2.33381 | 35953 ft | 495 kts | 301° |
| 2026-05-05 22:49 | -7.57625 | -2.39321 | 35952 ft | 495 kts | 301° |
| 2026-05-05 22:50 | -7.54070 | -2.45247 | 35953 ft | 494 kts | 301° |
| 2026-05-05 22:50 | -7.50532 | -2.51135 | 35952 ft | 495 kts | 301° |
| 2026-05-05 22:51 | -7.46946 | -2.57106 | 35953 ft | 495 kts | 301° |
| 2026-05-05 22:51 | -7.43383 | -2.63045 | 35952 ft | 495 kts | 301° |
| 2026-05-05 22:52 | -7.39821 | -2.68971 | 35952 ft | 494 kts | 301° |
| 2026-05-05 22:52 | -7.36257 | -2.74898 | 35952 ft | 495 kts | 301° |
| 2026-05-05 22:53 | -7.32696 | -2.80822 | 35952 ft | 495 kts | 301° |
| 2026-05-05 22:53 | -7.29127 | -2.86756 | 35962 ft | 495 kts | 301° |
| 2026-05-05 22:54 | -7.25557 | -2.92687 | 35962 ft | 495 kts | 301° |
| 2026-05-05 22:54 | -7.21989 | -2.98609 | 35962 ft | 495 kts | 301° |
| 2026-05-05 22:55 | -7.18420 | -3.04535 | 35961 ft | 495 kts | 301° |
| 2026-05-05 22:55 | -7.14851 | -3.10468 | 35962 ft | 495 kts | 301° |
| 2026-05-05 22:56 | -7.11278 | -3.16395 | 35962 ft | 495 kts | 301° |
| 2026-05-05 22:56 | -7.07705 | -3.22318 | 35962 ft | 495 kts | 301° |
| 2026-05-05 22:57 | -7.04132 | -3.28240 | 35962 ft | 495 kts | 301° |
| 2026-05-05 22:57 | -7.00560 | -3.34169 | 35962 ft | 495 kts | 301° |
| 2026-05-05 22:58 | -6.96977 | -3.40101 | 35962 ft | 495 kts | 301° |
| 2026-05-05 22:58 | -6.93400 | -3.46018 | 35962 ft | 495 kts | 301° |
| 2026-05-05 22:59 | -6.89825 | -3.51938 | 35962 ft | 495 kts | 301° |
| 2026-05-05 22:59 | -6.86251 | -3.57854 | 35962 ft | 495 kts | 301° |
| 2026-05-05 23:00 | -6.80885 | -3.66737 | 35962 ft | 495 kts | 301° |
| 2026-05-05 23:00 | -6.77306 | -3.72651 | 35962 ft | 495 kts | 301° |
| 2026-05-05 23:01 | -6.73726 | -3.78565 | 35962 ft | 495 kts | 301° |
| 2026-05-05 23:01 | -6.70150 | -3.84478 | 35962 ft | 495 kts | 301° |
| 2026-05-05 23:02 | -6.66569 | -3.90395 | 35962 ft | 495 kts | 301° |
| 2026-05-05 23:02 | -6.62981 | -3.96315 | 35962 ft | 496 kts | 301° |
| 2026-05-05 23:03 | -6.59397 | -4.02228 | 35962 ft | 495 kts | 301° |
| 2026-05-05 23:03 | -6.55812 | -4.08142 | 35962 ft | 495 kts | 301° |
| 2026-05-05 23:04 | -6.52252 | -4.14015 | 35962 ft | 495 kts | 301° |
| 2026-05-05 23:04 | -6.48669 | -4.19921 | 35962 ft | 495 kts | 302° |
| 2026-05-05 23:05 | -6.45059 | -4.25872 | 35962 ft | 495 kts | 302° |
| 2026-05-05 23:05 | -6.41495 | -4.31739 | 35962 ft | 495 kts | 302° |
| 2026-05-05 23:06 | -6.37908 | -4.37648 | 35962 ft | 495 kts | 302° |
| 2026-05-05 23:06 | -6.34327 | -4.43550 | 35962 ft | 495 kts | 302° |
| 2026-05-05 23:07 | -6.30737 | -4.49464 | 35962 ft | 495 kts | 302° |
| 2026-05-05 23:07 | -6.27147 | -4.55375 | 35962 ft | 495 kts | 302° |
| 2026-05-05 23:08 | -6.23556 | -4.61285 | 35962 ft | 495 kts | 302° |
| 2026-05-05 23:08 | -6.19965 | -4.67189 | 35963 ft | 495 kts | 302° |
| 2026-05-05 23:09 | -6.16955 | -4.72129 | 35962 ft | 495 kts | 302° |
| 2026-05-05 23:09 | -6.13364 | -4.78033 | 35962 ft | 495 kts | 302° |
| 2026-05-05 23:10 | -6.09774 | -4.83936 | 35962 ft | 495 kts | 302° |
| 2026-05-05 23:10 | -6.06186 | -4.89832 | 35962 ft | 495 kts | 302° |
| 2026-05-05 23:11 | -6.02592 | -4.95739 | 35962 ft | 495 kts | 302° |
| 2026-05-05 23:11 | -5.99000 | -5.01642 | 35963 ft | 495 kts | 301° |
| 2026-05-05 23:12 | -5.95462 | -5.07578 | 35962 ft | 496 kts | 301° |
| 2026-05-05 23:12 | -5.91940 | -5.13544 | 35962 ft | 497 kts | 301° |
| 2026-05-05 23:13 | -5.88409 | -5.19506 | 35962 ft | 496 kts | 301° |
| 2026-05-05 23:13 | -5.84875 | -5.25460 | 35962 ft | 497 kts | 301° |
| 2026-05-05 23:14 | -5.81333 | -5.31418 | 35962 ft | 497 kts | 301° |
| 2026-05-05 23:14 | -5.77788 | -5.37377 | 35969 ft | 497 kts | 301° |
| 2026-05-05 23:15 | -5.74243 | -5.43338 | 35971 ft | 497 kts | 301° |
| 2026-05-05 23:15 | -5.70701 | -5.49295 | 35971 ft | 497 kts | 301° |
| 2026-05-05 23:16 | -5.67158 | -5.55257 | 35971 ft | 497 kts | 301° |
| 2026-05-05 23:16 | -5.63612 | -5.61211 | 35971 ft | 497 kts | 301° |
| 2026-05-05 23:17 | -5.60069 | -5.67155 | 35971 ft | 496 kts | 301° |
| 2026-05-05 23:17 | -5.56526 | -5.73100 | 35971 ft | 496 kts | 301° |
| 2026-05-05 23:18 | -5.52983 | -5.79049 | 35971 ft | 496 kts | 301° |
| 2026-05-05 23:18 | -5.49442 | -5.84993 | 35971 ft | 496 kts | 301° |
| 2026-05-05 23:19 | -5.45896 | -5.90942 | 35970 ft | 497 kts | 301° |
| 2026-05-05 23:19 | -5.42347 | -5.96894 | 35971 ft | 497 kts | 301° |
| 2026-05-05 23:20 | -5.38798 | -6.02840 | 35971 ft | 497 kts | 301° |
| 2026-05-05 23:20 | -5.35254 | -6.08779 | 35971 ft | 497 kts | 301° |
| 2026-05-05 23:21 | -5.31704 | -6.14732 | 35971 ft | 497 kts | 301° |
| 2026-05-05 23:21 | -5.28153 | -6.20685 | 35973 ft | 497 kts | 301° |
| 2026-05-05 23:22 | -5.24596 | -6.26641 | 35971 ft | 497 kts | 301° |
| 2026-05-05 23:22 | -5.21040 | -6.32595 | 35971 ft | 497 kts | 301° |
| 2026-05-05 23:23 | -5.17480 | -6.38555 | 35971 ft | 498 kts | 301° |
| 2026-05-05 23:23 | -5.13925 | -6.44504 | 35972 ft | 498 kts | 301° |
| 2026-05-05 23:24 | -5.10365 | -6.50468 | 35973 ft | 498 kts | 301° |
| 2026-05-05 23:24 | -5.06799 | -6.56426 | 35971 ft | 498 kts | 301° |
| 2026-05-05 23:25 | -5.03233 | -6.62380 | 35971 ft | 498 kts | 301° |
| 2026-05-05 23:25 | -4.99672 | -6.68335 | 35971 ft | 498 kts | 301° |
| 2026-05-05 23:26 | -4.96112 | -6.74287 | 35972 ft | 498 kts | 302° |
| 2026-05-05 23:26 | -4.92544 | -6.80243 | 35971 ft | 498 kts | 302° |
| 2026-05-05 23:27 | -4.88971 | -6.86211 | 35971 ft | 498 kts | 301° |
| 2026-05-05 23:27 | -4.85413 | -6.92158 | 35971 ft | 498 kts | 301° |
| 2026-05-05 23:28 | -4.81850 | -6.98111 | 35971 ft | 498 kts | 302° |
| 2026-05-05 23:28 | -4.78277 | -7.04069 | 35971 ft | 499 kts | 301° |
| 2026-05-05 23:29 | -4.74705 | -7.10029 | 35972 ft | 498 kts | 302° |
| 2026-05-05 23:29 | -4.71133 | -7.15988 | 35971 ft | 499 kts | 301° |
| 2026-05-05 23:30 | -4.67554 | -7.21957 | 35971 ft | 499 kts | 301° |
| 2026-05-05 23:30 | -4.63975 | -7.27921 | 35971 ft | 499 kts | 302° |
| 2026-05-05 23:31 | -4.60401 | -7.33883 | 35971 ft | 499 kts | 302° |
| 2026-05-05 23:31 | -4.56825 | -7.39843 | 35970 ft | 499 kts | 301° |
| 2026-05-05 23:32 | -4.53251 | -7.45799 | 35972 ft | 499 kts | 301° |
| 2026-05-05 23:32 | -4.49666 | -7.51770 | 35970 ft | 500 kts | 302° |
| 2026-05-05 23:33 | -4.46086 | -7.57734 | 35970 ft | 500 kts | 301° |
| 2026-05-05 23:33 | -4.42496 | -7.63717 | 35971 ft | 500 kts | 302° |
| 2026-05-05 23:34 | -4.38907 | -7.69687 | 35973 ft | 501 kts | 302° |
| 2026-05-05 23:34 | -4.35309 | -7.75673 | 35971 ft | 501 kts | 301° |
| 2026-05-05 23:35 | -4.31716 | -7.81654 | 35971 ft | 501 kts | 301° |
| 2026-05-05 23:35 | -4.28118 | -7.87638 | 35971 ft | 501 kts | 302° |
| 2026-05-05 23:36 | -4.24522 | -7.93621 | 35972 ft | 501 kts | 301° |
| 2026-05-05 23:36 | -4.20924 | -7.99602 | 35971 ft | 502 kts | 302° |
| 2026-05-05 23:37 | -4.17321 | -8.05585 | 35972 ft | 501 kts | 302° |
| 2026-05-05 23:37 | -4.13722 | -8.11570 | 35971 ft | 502 kts | 301° |
| 2026-05-05 23:38 | -4.10120 | -8.17556 | 35971 ft | 502 kts | 302° |
| 2026-05-05 23:38 | -4.06518 | -8.23539 | 35971 ft | 502 kts | 302° |
| 2026-05-05 23:39 | -4.02919 | -8.29521 | 35971 ft | 501 kts | 301° |
| 2026-05-05 23:39 | -3.99316 | -8.35508 | 35971 ft | 502 kts | 302° |
| 2026-05-05 23:40 | -3.95714 | -8.41486 | 35971 ft | 502 kts | 302° |
| 2026-05-05 23:40 | -3.92107 | -8.47472 | 35971 ft | 502 kts | 302° |
| 2026-05-05 23:41 | -3.88499 | -8.53454 | 35971 ft | 502 kts | 302° |
| 2026-05-05 23:41 | -3.84894 | -8.59438 | 35971 ft | 502 kts | 302° |
| 2026-05-05 23:42 | -3.81284 | -8.65430 | 35971 ft | 502 kts | 302° |
| 2026-05-05 23:42 | -3.77678 | -8.71417 | 35971 ft | 502 kts | 301° |
| 2026-05-05 23:43 | -3.74070 | -8.77396 | 35971 ft | 502 kts | 302° |
| 2026-05-05 23:43 | -3.70461 | -8.83382 | 35971 ft | 502 kts | 301° |
| 2026-05-05 23:44 | -3.66848 | -8.89368 | 35971 ft | 502 kts | 301° |
| 2026-05-05 23:44 | -3.63238 | -8.95353 | 35971 ft | 502 kts | 301° |
| 2026-05-05 23:45 | -3.59627 | -9.01334 | 35971 ft | 502 kts | 301° |
| 2026-05-05 23:45 | -3.56016 | -9.07315 | 35971 ft | 502 kts | 301° |
| 2026-05-05 23:46 | -3.52400 | -9.13307 | 35971 ft | 502 kts | 301° |
| 2026-05-05 23:46 | -3.48787 | -9.19293 | 35971 ft | 502 kts | 301° |
| 2026-05-05 23:47 | -3.45178 | -9.25266 | 35971 ft | 502 kts | 301° |
| 2026-05-05 23:47 | -3.41559 | -9.31258 | 35971 ft | 502 kts | 301° |
| 2026-05-05 23:48 | -3.38557 | -9.36230 | 35971 ft | 502 kts | 301° |
| 2026-05-05 23:48 | -3.34942 | -9.42213 | 35971 ft | 502 kts | 301° |
| 2026-05-05 23:49 | -3.31303 | -9.48232 | 35971 ft | 502 kts | 301° |
| 2026-05-05 23:49 | -3.27710 | -9.54177 | 35971 ft | 502 kts | 301° |
| 2026-05-05 23:50 | -3.24070 | -9.60194 | 35972 ft | 502 kts | 301° |
| 2026-05-05 23:50 | -3.20480 | -9.66136 | 35971 ft | 503 kts | 301° |
| 2026-05-05 23:51 | -3.16854 | -9.72129 | 35971 ft | 503 kts | 301° |
| 2026-05-05 23:51 | -3.13230 | -9.78119 | 35973 ft | 503 kts | 301° |
| 2026-05-05 23:52 | -3.09609 | -9.84106 | 35971 ft | 503 kts | 301° |
| 2026-05-05 23:52 | -3.05991 | -9.90092 | 35971 ft | 503 kts | 301° |
| 2026-05-05 23:53 | -3.02368 | -9.96081 | 35972 ft | 503 kts | 301° |
| 2026-05-05 23:53 | -2.99137 | -10.02279 | 35972 ft | 504 kts | 293° |
| 2026-05-05 23:54 | -2.96471 | -10.08757 | 35970 ft | 503 kts | 292° |
| 2026-05-05 23:54 | -2.93894 | -10.15274 | 35971 ft | 503 kts | 291° |
| 2026-05-05 23:55 | -2.91322 | -10.21788 | 35971 ft | 503 kts | 292° |
| 2026-05-05 23:55 | -2.88739 | -10.28297 | 35971 ft | 504 kts | 292° |
| 2026-05-05 23:56 | -2.86145 | -10.34811 | 35971 ft | 503 kts | 292° |
| 2026-05-05 23:56 | -2.83536 | -10.41361 | 35980 ft | 504 kts | 292° |
| 2026-05-05 23:57 | -2.80970 | -10.47812 | 35986 ft | 503 kts | 292° |
| 2026-05-05 23:57 | -2.78379 | -10.54321 | 35980 ft | 504 kts | 292° |
| 2026-05-05 23:58 | -2.75784 | -10.60832 | 35980 ft | 503 kts | 292° |
| 2026-05-05 23:58 | -2.73192 | -10.67334 | 35980 ft | 504 kts | 292° |
| 2026-05-05 23:59 | -2.70597 | -10.73847 | 35981 ft | 504 kts | 292° |
| 2026-05-05 23:59 | -2.68004 | -10.80352 | 35980 ft | 503 kts | 292° |
| 2026-05-06 00:00 | -2.65412 | -10.86859 | 35980 ft | 503 kts | 292° |
| 2026-05-06 00:00 | -2.62827 | -10.93345 | 35980 ft | 503 kts | 292° |
| 2026-05-06 00:01 | -2.60228 | -10.99856 | 35979 ft | 504 kts | 292° |
| 2026-05-06 00:01 | -2.57630 | -11.06367 | 35980 ft | 504 kts | 292° |
| 2026-05-06 00:02 | -2.55040 | -11.12865 | 35980 ft | 503 kts | 292° |
| 2026-05-06 00:02 | -2.52446 | -11.19371 | 35980 ft | 503 kts | 292° |
| 2026-05-06 00:03 | -2.49853 | -11.25869 | 35980 ft | 503 kts | 292° |
| 2026-05-06 00:03 | -2.47260 | -11.32362 | 35980 ft | 503 kts | 292° |
| 2026-05-06 00:04 | -2.44661 | -11.38874 | 35980 ft | 503 kts | 292° |
| 2026-05-06 00:04 | -2.42066 | -11.45374 | 35980 ft | 503 kts | 292° |
| 2026-05-06 00:05 | -2.38174 | -11.55131 | 35979 ft | 504 kts | 292° |
| 2026-05-06 00:06 | -2.35575 | -11.61641 | 35980 ft | 504 kts | 292° |
| 2026-05-06 00:06 | -2.32981 | -11.68137 | 35980 ft | 504 kts | 292° |
| 2026-05-06 00:07 | -2.30379 | -11.74646 | 35980 ft | 504 kts | 292° |
| 2026-05-06 00:07 | -2.27777 | -11.81151 | 35980 ft | 504 kts | 292° |
| 2026-05-06 00:08 | -2.25176 | -11.87662 | 35980 ft | 504 kts | 292° |
| 2026-05-06 00:08 | -2.22572 | -11.94172 | 35983 ft | 504 kts | 292° |
| 2026-05-06 00:09 | -2.19970 | -12.00678 | 35980 ft | 504 kts | 292° |
| 2026-05-06 00:09 | -2.17369 | -12.07192 | 35980 ft | 504 kts | 292° |
| 2026-05-06 00:10 | -2.14764 | -12.13705 | 35980 ft | 504 kts | 292° |
| 2026-05-06 00:10 | -2.12165 | -12.20213 | 35980 ft | 505 kts | 292° |
| 2026-05-06 00:11 | -2.09555 | -12.26738 | 35980 ft | 504 kts | 292° |
| 2026-05-06 00:11 | -2.06950 | -12.33246 | 35981 ft | 504 kts | 292° |
| 2026-05-06 00:12 | -2.04344 | -12.39758 | 35980 ft | 504 kts | 292° |
| 2026-05-06 00:12 | -2.01742 | -12.46262 | 35980 ft | 504 kts | 292° |
| 2026-05-06 00:13 | -1.99139 | -12.52765 | 35980 ft | 504 kts | 292° |
| 2026-05-06 00:13 | -1.96538 | -12.59274 | 35980 ft | 504 kts | 292° |
| 2026-05-06 00:14 | -1.93938 | -12.65768 | 35984 ft | 504 kts | 292° |
| 2026-05-06 00:14 | -1.91327 | -12.72286 | 35980 ft | 505 kts | 292° |
| 2026-05-06 00:15 | -1.88718 | -12.78796 | 35980 ft | 505 kts | 292° |
| 2026-05-06 00:15 | -1.86109 | -12.85314 | 35979 ft | 505 kts | 292° |
| 2026-05-06 00:16 | -1.83495 | -12.91840 | 35980 ft | 505 kts | 292° |
| 2026-05-06 00:16 | -1.80886 | -12.98359 | 35980 ft | 505 kts | 292° |
| 2026-05-06 00:17 | -1.78274 | -13.04880 | 35983 ft | 505 kts | 292° |
| 2026-05-06 00:17 | -1.75660 | -13.11400 | 35979 ft | 505 kts | 292° |
| 2026-05-06 00:18 | -1.73050 | -13.17913 | 35980 ft | 505 kts | 292° |
| 2026-05-06 00:18 | -1.70444 | -13.24423 | 35982 ft | 505 kts | 292° |
| 2026-05-06 00:19 | -1.67835 | -13.30936 | 35983 ft | 505 kts | 292° |
| 2026-05-06 00:19 | -1.65227 | -13.37447 | 35981 ft | 505 kts | 292° |
| 2026-05-06 00:20 | -1.62617 | -13.43948 | 35980 ft | 504 kts | 292° |
| 2026-05-06 00:20 | -1.60006 | -13.50455 | 35980 ft | 504 kts | 292° |
| 2026-05-06 00:21 | -1.57399 | -13.56959 | 35980 ft | 505 kts | 292° |
| 2026-05-06 00:21 | -1.54792 | -13.63465 | 35971 ft | 504 kts | 292° |
| 2026-05-06 00:22 | -1.52186 | -13.69969 | 35980 ft | 503 kts | 292° |
| 2026-05-06 00:22 | -1.49582 | -13.76469 | 35980 ft | 504 kts | 292° |
| 2026-05-06 00:23 | -1.46974 | -13.82968 | 35980 ft | 504 kts | 292° |
| 2026-05-06 00:23 | -1.44364 | -13.89466 | 35980 ft | 504 kts | 292° |
| 2026-05-06 00:24 | -1.41755 | -13.95972 | 35971 ft | 504 kts | 292° |
| 2026-05-06 00:24 | -1.39152 | -14.02466 | 35971 ft | 504 kts | 292° |
| 2026-05-06 00:25 | -1.36546 | -14.08963 | 35971 ft | 504 kts | 292° |
| 2026-05-06 00:25 | -1.33934 | -14.15470 | 35971 ft | 504 kts | 292° |
| 2026-05-06 00:26 | -1.31323 | -14.21975 | 35971 ft | 504 kts | 292° |
| 2026-05-06 00:26 | -1.28713 | -14.28480 | 35971 ft | 504 kts | 292° |
| 2026-05-06 00:27 | -1.26101 | -14.34988 | 35971 ft | 505 kts | 292° |
| 2026-05-06 00:27 | -1.23929 | -14.40395 | 35971 ft | 505 kts | 292° |
| 2026-05-06 00:28 | -1.21317 | -14.46909 | 35983 ft | 505 kts | 292° |
| 2026-05-06 00:28 | -1.18705 | -14.53408 | 35982 ft | 504 kts | 292° |
| 2026-05-06 00:29 | -1.16090 | -14.59919 | 35980 ft | 505 kts | 292° |
| 2026-05-06 00:29 | -1.13478 | -14.66427 | 35979 ft | 504 kts | 292° |
| 2026-05-06 00:30 | -1.10865 | -14.72935 | 35980 ft | 505 kts | 292° |
| 2026-05-06 00:30 | -1.08250 | -14.79445 | 35983 ft | 505 kts | 292° |
| 2026-05-06 00:31 | -1.05636 | -14.85948 | 35979 ft | 505 kts | 292° |
| 2026-05-06 00:31 | -1.03018 | -14.92470 | 35980 ft | 505 kts | 292° |
| 2026-05-06 00:32 | -1.00359 | -14.98962 | 35977 ft | 505 kts | 296° |
| 2026-05-06 00:32 | -0.96960 | -15.05095 | 35980 ft | 505 kts | 301° |
| 2026-05-06 00:33 | -0.93367 | -15.11116 | 35979 ft | 505 kts | 301° |
| 2026-05-06 00:33 | -0.89736 | -15.17127 | 35980 ft | 505 kts | 301° |
| 2026-05-06 00:34 | -0.86112 | -15.23140 | 35982 ft | 505 kts | 301° |
| 2026-05-06 00:34 | -0.82502 | -15.29151 | 35980 ft | 505 kts | 301° |
| 2026-05-06 00:35 | -0.78885 | -15.35175 | 35971 ft | 505 kts | 301° |
| 2026-05-06 00:35 | -0.75271 | -15.41197 | 35971 ft | 505 kts | 301° |
| 2026-05-06 00:36 | -0.71632 | -15.47263 | 35971 ft | 506 kts | 301° |
| 2026-05-06 00:36 | -0.68015 | -15.53287 | 35971 ft | 505 kts | 301° |
| 2026-05-06 00:37 | -0.64399 | -15.59310 | 35971 ft | 506 kts | 301° |
| 2026-05-06 00:37 | -0.60778 | -15.65337 | 35972 ft | 506 kts | 301° |
| 2026-05-06 00:38 | -0.57159 | -15.71370 | 35980 ft | 506 kts | 301° |
| 2026-05-06 00:38 | -0.53537 | -15.77404 | 35980 ft | 506 kts | 301° |
| 2026-05-06 00:39 | -0.49916 | -15.83437 | 35982 ft | 506 kts | 301° |
| 2026-05-06 00:39 | -0.46297 | -15.89465 | 35979 ft | 507 kts | 301° |
| 2026-05-06 00:40 | -0.42671 | -15.95512 | 35979 ft | 506 kts | 301° |
| 2026-05-06 00:40 | -0.39046 | -16.01546 | 35981 ft | 507 kts | 301° |
| 2026-05-06 00:41 | -0.35418 | -16.07587 | 35984 ft | 506 kts | 301° |
| 2026-05-06 00:41 | -0.31793 | -16.13625 | 35980 ft | 507 kts | 301° |
| 2026-05-06 00:42 | -0.28166 | -16.19662 | 35980 ft | 507 kts | 301° |
| 2026-05-06 00:42 | -0.24539 | -16.25703 | 35980 ft | 507 kts | 301° |
| 2026-05-06 00:43 | -0.20916 | -16.31738 | 35980 ft | 507 kts | 301° |
| 2026-05-06 00:43 | -0.17287 | -16.37780 | 35980 ft | 507 kts | 301° |
| 2026-05-06 00:44 | -0.13663 | -16.43819 | 35982 ft | 507 kts | 301° |
| 2026-05-06 00:44 | -0.10037 | -16.49856 | 35980 ft | 507 kts | 301° |
| 2026-05-06 00:45 | -0.06413 | -16.55895 | 35980 ft | 507 kts | 301° |
| 2026-05-06 00:45 | -0.02791 | -16.61933 | 35980 ft | 507 kts | 301° |
| 2026-05-06 00:46 | 0.00835 | -16.67971 | 35980 ft | 507 kts | 301° |
| 2026-05-06 00:46 | 0.04463 | -16.74011 | 35980 ft | 507 kts | 301° |
| 2026-05-06 00:47 | 0.08093 | -16.80051 | 35971 ft | 507 kts | 301° |
| 2026-05-06 00:47 | 0.11718 | -16.86085 | 35971 ft | 507 kts | 301° |
| 2026-05-06 00:48 | 0.15341 | -16.92120 | 35971 ft | 507 kts | 301° |
| 2026-05-06 00:48 | 0.18961 | -16.98151 | 35971 ft | 507 kts | 301° |
| 2026-05-06 00:49 | 0.22588 | -17.04192 | 35971 ft | 507 kts | 301° |
| 2026-05-06 00:49 | 0.26219 | -17.10236 | 35971 ft | 507 kts | 301° |
| 2026-05-06 00:50 | 0.29840 | -17.16271 | 35971 ft | 506 kts | 301° |
| 2026-05-06 00:50 | 0.33434 | -17.22257 | 35971 ft | 506 kts | 301° |
| 2026-05-06 00:51 | 0.37058 | -17.28293 | 35971 ft | 506 kts | 301° |
| 2026-05-06 00:51 | 0.40672 | -17.34314 | 35971 ft | 506 kts | 301° |
| 2026-05-06 00:52 | 0.44292 | -17.40344 | 35971 ft | 506 kts | 301° |
| 2026-05-06 00:52 | 0.47916 | -17.46381 | 35971 ft | 506 kts | 301° |
| 2026-05-06 00:53 | 0.51536 | -17.52411 | 35973 ft | 506 kts | 301° |
| 2026-05-06 00:53 | 0.55157 | -17.58441 | 36002 ft | 506 kts | 301° |
| 2026-05-06 00:54 | 0.58774 | -17.64465 | 35998 ft | 506 kts | 301° |
| 2026-05-06 00:54 | 0.62392 | -17.70493 | 35994 ft | 506 kts | 301° |
| 2026-05-06 00:55 | 0.66015 | -17.76529 | 36002 ft | 505 kts | 301° |
| 2026-05-06 00:55 | 0.69633 | -17.82556 | 36002 ft | 506 kts | 301° |
| 2026-05-06 00:56 | 0.73245 | -17.88577 | 36000 ft | 505 kts | 301° |
| 2026-05-06 00:56 | 0.76858 | -17.94601 | 35999 ft | 505 kts | 301° |
| 2026-05-06 00:57 | 0.80480 | -18.00627 | 35999 ft | 506 kts | 301° |
| 2026-05-06 00:57 | 0.84096 | -18.06650 | 36000 ft | 504 kts | 301° |
| 2026-05-06 00:58 | 0.87704 | -18.12669 | 35999 ft | 505 kts | 301° |
| 2026-05-06 00:58 | 0.91316 | -18.18690 | 36002 ft | 505 kts | 301° |
| 2026-05-06 00:59 | 0.94932 | -18.24715 | 36002 ft | 505 kts | 301° |
| 2026-05-06 00:59 | 0.98545 | -18.30730 | 35995 ft | 505 kts | 301° |
| 2026-05-06 01:00 | 1.02157 | -18.36756 | 35995 ft | 505 kts | 301° |
| 2026-05-06 01:00 | 1.05766 | -18.42777 | 35999 ft | 505 kts | 301° |
| 2026-05-06 01:01 | 1.09378 | -18.48799 | 35994 ft | 505 kts | 301° |
| 2026-05-06 01:01 | 1.12996 | -18.54825 | 36002 ft | 505 kts | 301° |
| 2026-05-06 01:02 | 1.16610 | -18.60846 | 35999 ft | 505 kts | 301° |
| 2026-05-06 01:02 | 1.20216 | -18.66864 | 35995 ft | 505 kts | 301° |
| 2026-05-06 01:03 | 1.23825 | -18.72881 | 36000 ft | 505 kts | 301° |
| 2026-05-06 01:03 | 1.27436 | -18.78899 | 36002 ft | 505 kts | 301° |
| 2026-05-06 01:04 | 1.31049 | -18.84914 | 36002 ft | 505 kts | 301° |
| 2026-05-06 01:04 | 1.34632 | -18.90891 | 36001 ft | 505 kts | 301° |
| 2026-05-06 01:05 | 1.38235 | -18.96902 | 35995 ft | 505 kts | 301° |
| 2026-05-06 01:05 | 1.41851 | -19.02928 | 36002 ft | 505 kts | 301° |
| 2026-05-06 01:06 | 1.45453 | -19.08938 | 35998 ft | 504 kts | 301° |
| 2026-05-06 01:06 | 1.49053 | -19.14949 | 35995 ft | 504 kts | 301° |
| 2026-05-06 01:07 | 1.52656 | -19.20961 | 36002 ft | 504 kts | 301° |
| 2026-05-06 01:07 | 1.56256 | -19.26968 | 36003 ft | 504 kts | 301° |
| 2026-05-06 01:08 | 1.59856 | -19.32972 | 35994 ft | 504 kts | 301° |
| 2026-05-06 01:08 | 1.62883 | -19.38021 | 36001 ft | 504 kts | 301° |
| 2026-05-06 01:09 | 1.66487 | -19.44032 | 35999 ft | 504 kts | 301° |
| 2026-05-06 01:09 | 1.70084 | -19.50035 | 35995 ft | 504 kts | 301° |
| 2026-05-06 01:10 | 1.73684 | -19.56043 | 35997 ft | 503 kts | 301° |
| 2026-05-06 01:10 | 1.77281 | -19.62050 | 35997 ft | 503 kts | 301° |
| 2026-05-06 01:11 | 1.80878 | -19.68055 | 35995 ft | 504 kts | 301° |
| 2026-05-06 01:11 | 1.84475 | -19.74061 | 36003 ft | 503 kts | 301° |
| 2026-05-06 01:12 | 1.88066 | -19.80062 | 36001 ft | 503 kts | 301° |
| 2026-05-06 01:12 | 1.91667 | -19.86067 | 35995 ft | 503 kts | 301° |
| 2026-05-06 01:13 | 1.95264 | -19.92069 | 36002 ft | 503 kts | 301° |
| 2026-05-06 01:13 | 1.98854 | -19.98069 | 36026 ft | 503 kts | 301° |
| 2026-05-06 01:13 | 2.00647 | -20.01066 | 36273 ft | 500 kts | 301° |
| 2026-05-06 01:14 | 2.04227 | -20.07001 | 36742 ft | 497 kts | 301° |
| 2026-05-06 01:14 | 2.06009 | -20.09941 | 36939 ft | 495 kts | 301° |
| 2026-05-06 01:14 | 2.07796 | -20.12890 | 37159 ft | 493 kts | 301° |
| 2026-05-06 01:15 | 2.09569 | -20.15814 | 37401 ft | 491 kts | 301° |
| 2026-05-06 01:15 | 2.11331 | -20.18725 | 37630 ft | 488 kts | 301° |
| 2026-05-06 01:15 | 2.13083 | -20.21620 | 37824 ft | 486 kts | 301° |
| 2026-05-06 01:15 | 2.14832 | -20.24510 | 37940 ft | 486 kts | 301° |
| 2026-05-06 01:16 | 2.18341 | -20.30315 | 37999 ft | 490 kts | 301° |
| 2026-05-06 01:16 | 2.21871 | -20.36158 | 37999 ft | 491 kts | 301° |
| 2026-05-06 01:17 | 2.25403 | -20.42001 | 37999 ft | 491 kts | 301° |
| 2026-05-06 01:17 | 2.28935 | -20.47846 | 37999 ft | 491 kts | 301° |
| 2026-05-06 01:18 | 2.32466 | -20.53691 | 37998 ft | 491 kts | 301° |
| 2026-05-06 01:18 | 2.35995 | -20.59535 | 37999 ft | 491 kts | 301° |
| 2026-05-06 01:19 | 2.39531 | -20.65387 | 37999 ft | 492 kts | 301° |
| 2026-05-06 01:19 | 2.43069 | -20.71242 | 37999 ft | 492 kts | 301° |
| 2026-05-06 01:20 | 2.46605 | -20.77093 | 37999 ft | 492 kts | 301° |
| 2026-05-06 01:20 | 2.50146 | -20.82953 | 37999 ft | 492 kts | 301° |
| 2026-05-06 01:21 | 2.53682 | -20.88809 | 37998 ft | 492 kts | 301° |
| 2026-05-06 01:21 | 2.57217 | -20.94669 | 37999 ft | 492 kts | 301° |
| 2026-05-06 01:22 | 2.60730 | -21.00495 | 37999 ft | 492 kts | 301° |
| 2026-05-06 01:22 | 2.64269 | -21.06358 | 37999 ft | 493 kts | 301° |
| 2026-05-06 01:23 | 2.67812 | -21.12223 | 37999 ft | 493 kts | 301° |
| 2026-05-06 01:23 | 2.71356 | -21.18090 | 37998 ft | 492 kts | 301° |
| 2026-05-06 01:24 | 2.74894 | -21.23947 | 37999 ft | 493 kts | 301° |
| 2026-05-06 01:24 | 2.78429 | -21.29819 | 37999 ft | 493 kts | 301° |
| 2026-05-06 01:25 | 2.81977 | -21.35704 | 37999 ft | 493 kts | 301° |
| 2026-05-06 01:25 | 2.85521 | -21.41574 | 37999 ft | 493 kts | 301° |
| 2026-05-06 01:26 | 2.89063 | -21.47448 | 37999 ft | 493 kts | 301° |
| 2026-05-06 01:26 | 2.92607 | -21.53330 | 37999 ft | 493 kts | 301° |
| 2026-05-06 01:27 | 2.96150 | -21.59210 | 37999 ft | 493 kts | 301° |
| 2026-05-06 01:27 | 2.99695 | -21.65088 | 37999 ft | 493 kts | 301° |
| 2026-05-06 01:28 | 3.03235 | -21.70965 | 37999 ft | 493 kts | 301° |
| 2026-05-06 01:28 | 3.06775 | -21.76842 | 37999 ft | 493 kts | 301° |
| 2026-05-06 01:29 | 3.10317 | -21.82717 | 37999 ft | 494 kts | 301° |
| 2026-05-06 01:29 | 3.13861 | -21.88599 | 37999 ft | 494 kts | 301° |
| 2026-05-06 01:30 | 3.17402 | -21.94479 | 37999 ft | 494 kts | 301° |
| 2026-05-06 01:30 | 3.20946 | -22.00371 | 37999 ft | 494 kts | 301° |
| 2026-05-06 01:31 | 3.24489 | -22.06257 | 37999 ft | 493 kts | 301° |
| 2026-05-06 01:31 | 3.28027 | -22.12130 | 37999 ft | 494 kts | 301° |
| 2026-05-06 01:32 | 3.31575 | -22.18022 | 37999 ft | 494 kts | 301° |
| 2026-05-06 01:32 | 3.35118 | -22.23911 | 37998 ft | 494 kts | 301° |
| 2026-05-06 01:33 | 3.38657 | -22.29794 | 37999 ft | 494 kts | 301° |
| 2026-05-06 01:33 | 3.42201 | -22.35683 | 37999 ft | 494 kts | 301° |
| 2026-05-06 01:34 | 3.45742 | -22.41570 | 37999 ft | 493 kts | 301° |
| 2026-05-06 01:34 | 3.49278 | -22.47455 | 38006 ft | 493 kts | 301° |
| 2026-05-06 01:35 | 3.52816 | -22.53336 | 38008 ft | 493 kts | 301° |
| 2026-05-06 01:35 | 3.56354 | -22.59222 | 38008 ft | 493 kts | 301° |
| 2026-05-06 01:36 | 3.59887 | -22.65101 | 38009 ft | 493 kts | 301° |
| 2026-05-06 01:36 | 3.63421 | -22.70982 | 38008 ft | 493 kts | 301° |
| 2026-05-06 01:37 | 3.66954 | -22.76866 | 38008 ft | 493 kts | 301° |
| 2026-05-06 01:37 | 3.70486 | -22.82745 | 38008 ft | 493 kts | 301° |
| 2026-05-06 01:38 | 3.74019 | -22.88624 | 38008 ft | 493 kts | 301° |
| 2026-05-06 01:38 | 3.77549 | -22.94503 | 38008 ft | 492 kts | 301° |
| 2026-05-06 01:39 | 3.81077 | -23.00385 | 38008 ft | 492 kts | 301° |
| 2026-05-06 01:39 | 3.84598 | -23.06256 | 38008 ft | 492 kts | 301° |
| 2026-05-06 01:40 | 3.88114 | -23.12113 | 38008 ft | 492 kts | 301° |
| 2026-05-06 01:40 | 3.91645 | -23.17993 | 38008 ft | 492 kts | 301° |
| 2026-05-06 01:41 | 3.95171 | -23.23870 | 38008 ft | 491 kts | 301° |
| 2026-05-06 01:41 | 3.98688 | -23.29736 | 38008 ft | 491 kts | 301° |
| 2026-05-06 01:42 | 4.02199 | -23.35597 | 38007 ft | 491 kts | 301° |
| 2026-05-06 01:42 | 4.05712 | -23.41456 | 38008 ft | 491 kts | 301° |
| 2026-05-06 01:43 | 4.09229 | -23.47323 | 38008 ft | 491 kts | 301° |
| 2026-05-06 01:43 | 4.12743 | -23.53192 | 38008 ft | 491 kts | 301° |
| 2026-05-06 01:44 | 4.16259 | -23.59054 | 38008 ft | 491 kts | 301° |
| 2026-05-06 01:44 | 4.19769 | -23.64913 | 38008 ft | 491 kts | 301° |
| 2026-05-06 01:45 | 4.23280 | -23.70779 | 38011 ft | 490 kts | 301° |
| 2026-05-06 01:45 | 4.26789 | -23.76639 | 38019 ft | 490 kts | 301° |
| 2026-05-06 01:46 | 4.30298 | -23.82500 | 38016 ft | 490 kts | 301° |
| 2026-05-06 01:46 | 4.33803 | -23.88358 | 38019 ft | 490 kts | 301° |
| 2026-05-06 01:47 | 4.37306 | -23.94215 | 38019 ft | 490 kts | 301° |
| 2026-05-06 01:47 | 4.40815 | -24.00078 | 38017 ft | 490 kts | 301° |
| 2026-05-06 01:48 | 4.43728 | -24.04947 | 38017 ft | 490 kts | 301° |
| 2026-05-06 01:48 | 4.47801 | -24.11760 | 38017 ft | 490 kts | 301° |
| 2026-05-06 01:49 | 4.50735 | -24.16674 | 38017 ft | 491 kts | 301° |
| 2026-05-06 01:49 | 4.54812 | -24.23492 | 38017 ft | 490 kts | 301° |
| 2026-05-06 01:50 | 4.58319 | -24.29359 | 38017 ft | 490 kts | 300° |
| 2026-05-06 01:50 | 4.61229 | -24.34233 | 38016 ft | 491 kts | 300° |
| 2026-05-06 01:51 | 4.64740 | -24.40107 | 38017 ft | 491 kts | 300° |
| 2026-05-06 01:51 | 4.68244 | -24.45976 | 38017 ft | 491 kts | 300° |
| 2026-05-06 01:52 | 4.71747 | -24.51848 | 38017 ft | 491 kts | 300° |
| 2026-05-06 01:52 | 4.75249 | -24.57712 | 38019 ft | 491 kts | 300° |
| 2026-05-06 01:53 | 4.78756 | -24.63592 | 38017 ft | 491 kts | 300° |
| 2026-05-06 01:53 | 4.82258 | -24.69463 | 38019 ft | 491 kts | 300° |
| 2026-05-06 01:54 | 4.85762 | -24.75339 | 38017 ft | 491 kts | 300° |
| 2026-05-06 01:54 | 4.89267 | -24.81218 | 38017 ft | 491 kts | 300° |
| 2026-05-06 01:55 | 4.92772 | -24.87095 | 38017 ft | 491 kts | 300° |
| 2026-05-06 01:55 | 4.96277 | -24.92973 | 38019 ft | 491 kts | 300° |
| 2026-05-06 01:56 | 4.99773 | -24.98842 | 38017 ft | 491 kts | 300° |
| 2026-05-06 01:56 | 5.03279 | -25.04728 | 38018 ft | 491 kts | 300° |
| 2026-05-06 01:57 | 5.06777 | -25.10604 | 38017 ft | 491 kts | 300° |
| 2026-05-06 01:57 | 5.10280 | -25.16488 | 38017 ft | 491 kts | 300° |
| 2026-05-06 01:58 | 5.13779 | -25.22366 | 38019 ft | 491 kts | 300° |
| 2026-05-06 01:58 | 5.17270 | -25.28238 | 38017 ft | 490 kts | 300° |
| 2026-05-06 01:59 | 5.20769 | -25.34121 | 38019 ft | 491 kts | 300° |
| 2026-05-06 01:59 | 5.24268 | -25.40001 | 38017 ft | 490 kts | 300° |
| 2026-05-06 02:00 | 5.27761 | -25.45872 | 38017 ft | 490 kts | 300° |
| 2026-05-06 02:00 | 5.31258 | -25.51751 | 38017 ft | 490 kts | 300° |
| 2026-05-06 02:01 | 5.34740 | -25.57623 | 38017 ft | 490 kts | 300° |
| 2026-05-06 02:01 | 5.38228 | -25.63497 | 38017 ft | 490 kts | 300° |
| 2026-05-06 02:02 | 5.41717 | -25.69368 | 38015 ft | 490 kts | 300° |
| 2026-05-06 02:02 | 5.45201 | -25.75240 | 38009 ft | 489 kts | 300° |
| 2026-05-06 02:03 | 5.48687 | -25.81107 | 38009 ft | 489 kts | 300° |
| 2026-05-06 02:03 | 5.52589 | -25.86712 | 38008 ft | 490 kts | 306° |
| 2026-05-06 02:04 | 5.56711 | -25.92158 | 38008 ft | 490 kts | 307° |
| 2026-05-06 02:04 | 5.60869 | -25.97580 | 38008 ft | 490 kts | 307° |
| 2026-05-06 02:05 | 5.65025 | -26.03008 | 38008 ft | 490 kts | 307° |
| 2026-05-06 02:05 | 5.69167 | -26.08435 | 38008 ft | 490 kts | 306° |
| 2026-05-06 02:06 | 5.73302 | -26.13859 | 38008 ft | 490 kts | 306° |
| 2026-05-06 02:06 | 5.77446 | -26.19294 | 38007 ft | 489 kts | 306° |
| 2026-05-06 02:07 | 5.81590 | -26.24728 | 38008 ft | 490 kts | 306° |
| 2026-05-06 02:07 | 5.85731 | -26.30162 | 38008 ft | 490 kts | 306° |
| 2026-05-06 02:08 | 5.89872 | -26.35594 | 38008 ft | 490 kts | 306° |
| 2026-05-06 02:08 | 5.94014 | -26.41034 | 38008 ft | 490 kts | 306° |
| 2026-05-06 02:09 | 5.98152 | -26.46474 | 38008 ft | 490 kts | 306° |
| 2026-05-06 02:09 | 6.02280 | -26.51900 | 38008 ft | 490 kts | 306° |
| 2026-05-06 02:10 | 6.06418 | -26.57342 | 38008 ft | 489 kts | 306° |
| 2026-05-06 02:10 | 6.10550 | -26.62768 | 38008 ft | 489 kts | 306° |
| 2026-05-06 02:11 | 6.14678 | -26.68193 | 38008 ft | 489 kts | 306° |
| 2026-05-06 02:11 | 6.18806 | -26.73623 | 38008 ft | 489 kts | 306° |
| 2026-05-06 02:12 | 6.22927 | -26.79046 | 38008 ft | 489 kts | 306° |
| 2026-05-06 02:12 | 6.27054 | -26.84480 | 38009 ft | 489 kts | 306° |
| 2026-05-06 02:13 | 6.31170 | -26.89895 | 38008 ft | 488 kts | 306° |
| 2026-05-06 02:13 | 6.35296 | -26.95325 | 38008 ft | 488 kts | 306° |
| 2026-05-06 02:14 | 6.39415 | -27.00753 | 38000 ft | 488 kts | 306° |
| 2026-05-06 02:14 | 6.43529 | -27.06173 | 37991 ft | 488 kts | 306° |
| 2026-05-06 02:15 | 6.47642 | -27.11595 | 37989 ft | 487 kts | 306° |
| 2026-05-06 02:15 | 6.51764 | -27.17020 | 37990 ft | 488 kts | 306° |
| 2026-05-06 02:16 | 6.55878 | -27.22439 | 37979 ft | 488 kts | 306° |
| 2026-05-06 02:16 | 6.59997 | -27.27864 | 37981 ft | 487 kts | 306° |
| 2026-05-06 02:17 | 6.64114 | -27.33286 | 37981 ft | 487 kts | 306° |
| 2026-05-06 02:17 | 6.68225 | -27.38699 | 37980 ft | 487 kts | 306° |
| 2026-05-06 02:18 | 6.72311 | -27.44092 | 37980 ft | 487 kts | 306° |
| 2026-05-06 02:18 | 6.76416 | -27.49510 | 37980 ft | 487 kts | 306° |
| 2026-05-06 02:19 | 6.80522 | -27.54928 | 37980 ft | 487 kts | 306° |
| 2026-05-06 02:19 | 6.84630 | -27.60349 | 37980 ft | 487 kts | 306° |
| 2026-05-06 02:20 | 6.90785 | -27.68477 | 37980 ft | 487 kts | 306° |
| 2026-05-06 02:21 | 6.94889 | -27.73902 | 37981 ft | 487 kts | 306° |
| 2026-05-06 02:21 | 6.98981 | -27.79316 | 37979 ft | 486 kts | 306° |
| 2026-05-06 02:22 | 7.03085 | -27.84739 | 37980 ft | 486 kts | 306° |
| 2026-05-06 02:22 | 7.07178 | -27.90150 | 37980 ft | 486 kts | 306° |
| 2026-05-06 02:23 | 7.11264 | -27.95567 | 37982 ft | 486 kts | 306° |
| 2026-05-06 02:23 | 7.15350 | -28.00982 | 37982 ft | 486 kts | 306° |
| 2026-05-06 02:24 | 7.19442 | -28.06404 | 37981 ft | 485 kts | 306° |
| 2026-05-06 02:24 | 7.23522 | -28.11811 | 37982 ft | 485 kts | 306° |
| 2026-05-06 02:25 | 7.27593 | -28.17214 | 37979 ft | 484 kts | 306° |
| 2026-05-06 02:25 | 7.31675 | -28.22620 | 37981 ft | 484 kts | 306° |
| 2026-05-06 02:26 | 7.35745 | -28.28017 | 37980 ft | 484 kts | 305° |
| 2026-05-06 02:26 | 7.39810 | -28.33422 | 37980 ft | 484 kts | 306° |
| 2026-05-06 02:27 | 7.43877 | -28.38823 | 37980 ft | 484 kts | 306° |
| 2026-05-06 02:27 | 7.47939 | -28.44220 | 37980 ft | 484 kts | 305° |
| 2026-05-06 02:28 | 7.52002 | -28.49621 | 37979 ft | 484 kts | 306° |
| 2026-05-06 02:28 | 7.56066 | -28.55023 | 37980 ft | 484 kts | 306° |
| 2026-05-06 02:29 | 7.60130 | -28.60427 | 37980 ft | 483 kts | 305° |
| 2026-05-06 02:29 | 7.64190 | -28.65829 | 37981 ft | 483 kts | 305° |
| 2026-05-06 02:30 | 7.68244 | -28.71224 | 37981 ft | 483 kts | 305° |
| 2026-05-06 02:30 | 7.72294 | -28.76613 | 37980 ft | 483 kts | 305° |
| 2026-05-06 02:31 | 7.75663 | -28.81102 | 37980 ft | 483 kts | 305° |
| 2026-05-06 02:31 | 7.79717 | -28.86503 | 37979 ft | 483 kts | 306° |
| 2026-05-06 02:32 | 7.83763 | -28.91892 | 37981 ft | 482 kts | 305° |
| 2026-05-06 02:32 | 7.87805 | -28.97283 | 37980 ft | 482 kts | 305° |
| 2026-05-06 02:33 | 7.91847 | -29.02676 | 37980 ft | 482 kts | 305° |
| 2026-05-06 02:33 | 7.93215 | -29.04500 | 37981 ft | 482 kts | 305° |
| 2026-05-06 02:34 | 7.99926 | -29.13453 | 37982 ft | 481 kts | 305° |
| 2026-05-06 02:34 | 8.03954 | -29.18830 | 37980 ft | 480 kts | 305° |
| 2026-05-06 02:35 | 8.07977 | -29.24206 | 37980 ft | 479 kts | 305° |
| 2026-05-06 02:35 | 8.11986 | -29.29562 | 37981 ft | 479 kts | 305° |
| 2026-05-06 02:36 | 8.15996 | -29.34920 | 37980 ft | 478 kts | 305° |
| 2026-05-06 02:36 | 8.20008 | -29.40281 | 37981 ft | 479 kts | 305° |
| 2026-05-06 02:37 | 8.24013 | -29.45637 | 37980 ft | 478 kts | 305° |
| 2026-05-06 02:37 | 8.28017 | -29.50998 | 37981 ft | 478 kts | 305° |
| 2026-05-06 02:38 | 8.32018 | -29.56356 | 37979 ft | 478 kts | 305° |
| 2026-05-06 02:38 | 8.36018 | -29.61715 | 37980 ft | 478 kts | 305° |
| 2026-05-06 02:39 | 8.40021 | -29.67076 | 37980 ft | 478 kts | 305° |
| 2026-05-06 02:39 | 8.44024 | -29.72444 | 37979 ft | 478 kts | 305° |
| 2026-05-06 02:40 | 8.48024 | -29.77803 | 37981 ft | 478 kts | 305° |
| 2026-05-06 02:40 | 8.52019 | -29.83165 | 37980 ft | 478 kts | 305° |
| 2026-05-06 02:41 | 8.56016 | -29.88525 | 37981 ft | 478 kts | 305° |
| 2026-05-06 02:41 | 8.60014 | -29.93889 | 37979 ft | 478 kts | 305° |
| 2026-05-06 02:42 | 8.64009 | -29.99254 | 37980 ft | 477 kts | 305° |
| 2026-05-06 02:42 | 8.67999 | -30.04613 | 37979 ft | 477 kts | 305° |
| 2026-05-06 02:43 | 8.71989 | -30.09971 | 37980 ft | 477 kts | 305° |
| 2026-05-06 02:43 | 8.75970 | -30.15325 | 37982 ft | 476 kts | 305° |
| 2026-05-06 02:44 | 8.79952 | -30.20675 | 37990 ft | 476 kts | 305° |
| 2026-05-06 02:44 | 8.83937 | -30.26032 | 37989 ft | 476 kts | 305° |
| 2026-05-06 02:45 | 8.87914 | -30.31384 | 37989 ft | 476 kts | 305° |
| 2026-05-06 02:45 | 8.91887 | -30.36735 | 37989 ft | 475 kts | 305° |
| 2026-05-06 02:46 | 8.95856 | -30.42083 | 37990 ft | 475 kts | 305° |
| 2026-05-06 02:46 | 8.99826 | -30.47435 | 37990 ft | 476 kts | 305° |
| 2026-05-06 02:47 | 9.03797 | -30.52790 | 37990 ft | 475 kts | 305° |
| 2026-05-06 02:47 | 9.07762 | -30.58131 | 37990 ft | 475 kts | 305° |
| 2026-05-06 02:48 | 9.11725 | -30.63476 | 38008 ft | 475 kts | 305° |
| 2026-05-06 02:48 | 9.15688 | -30.68826 | 38008 ft | 475 kts | 305° |
| 2026-05-06 02:49 | 9.19648 | -30.74179 | 38008 ft | 475 kts | 304° |
| 2026-05-06 02:49 | 9.23602 | -30.79524 | 38008 ft | 474 kts | 305° |
| 2026-05-06 02:50 | 9.27568 | -30.84877 | 38008 ft | 474 kts | 305° |
| 2026-05-06 02:50 | 9.31523 | -30.90221 | 38008 ft | 474 kts | 305° |
| 2026-05-06 02:51 | 9.35474 | -30.95566 | 38008 ft | 474 kts | 305° |
| 2026-05-06 02:51 | 9.39430 | -31.00920 | 38008 ft | 474 kts | 304° |
| 2026-05-06 02:52 | 9.43382 | -31.06265 | 38008 ft | 474 kts | 304° |
| 2026-05-06 02:52 | 9.47328 | -31.11610 | 38008 ft | 474 kts | 305° |
| 2026-05-06 02:53 | 9.51268 | -31.16953 | 38008 ft | 473 kts | 304° |
| 2026-05-06 02:53 | 9.55211 | -31.22297 | 38009 ft | 473 kts | 304° |
| 2026-05-06 02:54 | 9.59152 | -31.27637 | 38008 ft | 473 kts | 304° |
| 2026-05-06 02:54 | 9.63093 | -31.32981 | 38008 ft | 473 kts | 304° |
| 2026-05-06 02:55 | 9.67026 | -31.38323 | 38008 ft | 473 kts | 304° |
| 2026-05-06 02:55 | 9.70956 | -31.43669 | 38008 ft | 473 kts | 304° |
| 2026-05-06 02:56 | 9.74887 | -31.49005 | 38008 ft | 472 kts | 304° |
| 2026-05-06 02:56 | 9.78818 | -31.54340 | 38008 ft | 472 kts | 304° |
| 2026-05-06 02:57 | 9.82742 | -31.59675 | 38008 ft | 472 kts | 304° |
| 2026-05-06 02:57 | 9.86661 | -31.65007 | 38008 ft | 471 kts | 304° |
| 2026-05-06 02:58 | 9.90575 | -31.70337 | 38008 ft | 471 kts | 304° |
| 2026-05-06 02:58 | 9.94485 | -31.75662 | 38008 ft | 471 kts | 304° |
| 2026-05-06 02:59 | 9.98404 | -31.80998 | 38008 ft | 471 kts | 304° |
| 2026-05-06 02:59 | 10.02321 | -31.86332 | 38008 ft | 471 kts | 304° |
| 2026-05-06 03:00 | 10.06234 | -31.91666 | 38008 ft | 471 kts | 304° |
| 2026-05-06 03:00 | 10.10138 | -31.96994 | 38008 ft | 471 kts | 304° |
| 2026-05-06 03:01 | 10.14045 | -32.02330 | 38008 ft | 471 kts | 304° |
| 2026-05-06 03:01 | 10.17953 | -32.07665 | 38008 ft | 471 kts | 304° |
| 2026-05-06 03:02 | 10.21853 | -32.12993 | 38008 ft | 471 kts | 304° |
| 2026-05-06 03:02 | 10.25760 | -32.18334 | 38008 ft | 470 kts | 304° |
| 2026-05-06 03:03 | 10.29663 | -32.23665 | 38008 ft | 471 kts | 304° |
| 2026-05-06 03:03 | 10.33572 | -32.29010 | 38008 ft | 471 kts | 304° |
| 2026-05-06 03:04 | 10.37481 | -32.34362 | 38010 ft | 471 kts | 304° |
| 2026-05-06 03:04 | 10.41381 | -32.39705 | 38008 ft | 471 kts | 304° |
| 2026-05-06 03:05 | 10.45292 | -32.45060 | 38012 ft | 471 kts | 304° |
| 2026-05-06 03:05 | 10.49194 | -32.50410 | 38017 ft | 471 kts | 304° |
| 2026-05-06 03:06 | 10.53100 | -32.55763 | 38017 ft | 471 kts | 304° |
| 2026-05-06 03:06 | 10.57006 | -32.61122 | 38017 ft | 472 kts | 304° |
| 2026-05-06 03:07 | 10.60909 | -32.66478 | 38018 ft | 472 kts | 304° |
| 2026-05-06 03:07 | 10.64811 | -32.71836 | 38017 ft | 472 kts | 304° |
| 2026-05-06 03:08 | 10.68712 | -32.77199 | 38017 ft | 471 kts | 304° |
| 2026-05-06 03:08 | 10.72607 | -32.82554 | 38017 ft | 471 kts | 304° |
| 2026-05-06 03:09 | 10.76507 | -32.87913 | 38013 ft | 472 kts | 304° |
| 2026-05-06 03:09 | 10.80413 | -32.93288 | 37999 ft | 472 kts | 304° |
| 2026-05-06 03:10 | 10.84314 | -32.98657 | 38000 ft | 472 kts | 304° |
| 2026-05-06 03:10 | 10.87556 | -33.03120 | 37999 ft | 472 kts | 304° |
| 2026-05-06 03:11 | 10.91452 | -33.08492 | 37999 ft | 472 kts | 304° |
| 2026-05-06 03:11 | 10.95355 | -33.13870 | 37999 ft | 472 kts | 304° |
| 2026-05-06 03:12 | 10.99244 | -33.19231 | 37999 ft | 472 kts | 304° |
| 2026-05-06 03:12 | 11.03140 | -33.24610 | 37999 ft | 472 kts | 304° |
| 2026-05-06 03:13 | 11.07035 | -33.29992 | 37999 ft | 472 kts | 304° |
| 2026-05-06 03:13 | 11.10930 | -33.35367 | 37999 ft | 472 kts | 304° |
| 2026-05-06 03:14 | 11.14821 | -33.40743 | 37999 ft | 472 kts | 304° |
| 2026-05-06 03:14 | 11.18710 | -33.46124 | 37999 ft | 472 kts | 304° |
| 2026-05-06 03:15 | 11.22599 | -33.51504 | 37999 ft | 472 kts | 304° |
| 2026-05-06 03:15 | 11.26486 | -33.56883 | 37999 ft | 471 kts | 303° |
| 2026-05-06 03:16 | 11.30373 | -33.62267 | 37999 ft | 471 kts | 303° |
| 2026-05-06 03:16 | 11.34258 | -33.67650 | 37999 ft | 471 kts | 303° |
| 2026-05-06 03:17 | 11.38142 | -33.73031 | 37999 ft | 471 kts | 303° |
| 2026-05-06 03:17 | 11.42023 | -33.78411 | 37999 ft | 471 kts | 303° |
| 2026-05-06 03:18 | 11.45905 | -33.83804 | 37999 ft | 472 kts | 303° |
| 2026-05-06 03:18 | 11.49783 | -33.89194 | 37998 ft | 472 kts | 303° |
| 2026-05-06 03:19 | 11.53671 | -33.94592 | 37999 ft | 472 kts | 303° |
| 2026-05-06 03:19 | 11.57557 | -33.99989 | 37999 ft | 472 kts | 303° |
| 2026-05-06 03:20 | 11.63380 | -34.08093 | 37999 ft | 472 kts | 303° |
| 2026-05-06 03:20 | 11.67267 | -34.13501 | 37998 ft | 473 kts | 303° |
| 2026-05-06 03:21 | 11.71150 | -34.18911 | 37999 ft | 473 kts | 303° |
| 2026-05-06 03:21 | 11.75039 | -34.24329 | 37999 ft | 473 kts | 303° |
| 2026-05-06 03:22 | 11.78923 | -34.29744 | 37999 ft | 473 kts | 303° |
| 2026-05-06 03:22 | 11.82809 | -34.35163 | 37999 ft | 473 kts | 303° |
| 2026-05-06 03:23 | 11.86691 | -34.40582 | 37998 ft | 473 kts | 303° |
| 2026-05-06 03:23 | 11.90577 | -34.46007 | 37999 ft | 473 kts | 303° |
| 2026-05-06 03:24 | 11.94455 | -34.51425 | 37999 ft | 473 kts | 303° |
| 2026-05-06 03:24 | 11.98331 | -34.56848 | 37999 ft | 473 kts | 303° |
| 2026-05-06 03:25 | 12.02207 | -34.62277 | 38004 ft | 473 kts | 303° |
| 2026-05-06 03:25 | 12.06076 | -34.67691 | 38008 ft | 472 kts | 303° |
| 2026-05-06 03:26 | 12.09946 | -34.73107 | 38008 ft | 471 kts | 303° |
| 2026-05-06 03:26 | 12.13811 | -34.78514 | 38008 ft | 471 kts | 303° |
| 2026-05-06 03:27 | 12.17673 | -34.83930 | 38008 ft | 471 kts | 303° |
| 2026-05-06 03:27 | 12.21526 | -34.89344 | 38008 ft | 471 kts | 303° |
| 2026-05-06 03:28 | 12.25386 | -34.94765 | 38008 ft | 471 kts | 303° |
| 2026-05-06 03:28 | 12.29236 | -35.00165 | 38008 ft | 471 kts | 303° |
| 2026-05-06 03:29 | 12.33092 | -35.05588 | 38003 ft | 471 kts | 303° |
| 2026-05-06 03:29 | 12.36940 | -35.11002 | 37999 ft | 471 kts | 303° |
| 2026-05-06 03:30 | 12.40796 | -35.16429 | 37999 ft | 471 kts | 303° |
| 2026-05-06 03:30 | 12.44643 | -35.21842 | 37999 ft | 471 kts | 303° |
| 2026-05-06 03:31 | 12.48496 | -35.27272 | 37999 ft | 471 kts | 303° |
| 2026-05-06 03:31 | 12.52343 | -35.32698 | 37999 ft | 470 kts | 303° |
| 2026-05-06 03:32 | 12.56186 | -35.38122 | 37999 ft | 471 kts | 303° |
| 2026-05-06 03:32 | 12.60032 | -35.43543 | 37999 ft | 471 kts | 303° |
| 2026-05-06 03:33 | 12.63873 | -35.48968 | 37999 ft | 471 kts | 303° |
| 2026-05-06 03:33 | 12.67710 | -35.54391 | 37998 ft | 470 kts | 303° |
| 2026-05-06 03:34 | 12.71551 | -35.59818 | 37999 ft | 470 kts | 303° |
| 2026-05-06 03:34 | 12.75386 | -35.65241 | 37999 ft | 470 kts | 303° |
| 2026-05-06 03:35 | 12.79218 | -35.70662 | 37999 ft | 470 kts | 303° |
| 2026-05-06 03:35 | 12.83051 | -35.76086 | 37999 ft | 470 kts | 303° |
| 2026-05-06 03:36 | 12.86878 | -35.81519 | 37999 ft | 469 kts | 303° |
| 2026-05-06 03:36 | 12.90701 | -35.86940 | 37999 ft | 470 kts | 303° |
| 2026-05-06 03:37 | 12.94529 | -35.92369 | 37999 ft | 469 kts | 302° |
| 2026-05-06 03:37 | 12.98347 | -35.97785 | 37999 ft | 469 kts | 303° |
| 2026-05-06 03:38 | 13.02165 | -36.03207 | 37998 ft | 469 kts | 302° |
| 2026-05-06 03:38 | 13.05977 | -36.08626 | 37998 ft | 468 kts | 302° |
| 2026-05-06 03:39 | 13.09790 | -36.14046 | 37999 ft | 468 kts | 302° |
| 2026-05-06 03:39 | 13.13594 | -36.19458 | 37998 ft | 468 kts | 302° |
| 2026-05-06 03:40 | 13.17398 | -36.24873 | 37999 ft | 467 kts | 302° |
| 2026-05-06 03:40 | 13.21194 | -36.30280 | 37999 ft | 467 kts | 302° |
| 2026-05-06 03:41 | 13.24987 | -36.35690 | 37999 ft | 467 kts | 302° |
| 2026-05-06 03:41 | 13.28785 | -36.41107 | 37999 ft | 467 kts | 302° |
| 2026-05-06 03:42 | 13.32578 | -36.46524 | 37999 ft | 467 kts | 302° |
| 2026-05-06 03:42 | 13.36372 | -36.51939 | 37999 ft | 467 kts | 302° |
| 2026-05-06 03:43 | 13.40159 | -36.57350 | 37999 ft | 467 kts | 302° |
| 2026-05-06 03:43 | 13.43949 | -36.62770 | 37999 ft | 467 kts | 302° |
| 2026-05-06 03:44 | 13.47091 | -36.67269 | 37999 ft | 467 kts | 302° |